CCTS

CCTS

Centro de Ciências, Tecnologia e Saúde

Meteorologia

Sobre Estação Meteorológica

MONITORAMENTO HIDROMETEOROLÓGICO DA REGIÃO DO CURIMATAÚ ORIENTAL DO ESTADO DA PARAÍBA

A estação hidrometeorológica do Campus VIII/CCTS da UEPB em Araruna-PB tem o objetivo de melhorar o conhecimento dos dados meteorológicos, tais como, temperatura do ar, umidade relativa, direção e velocidade do vento, precipitação pluvial, radiação solar, bem como, criar planilhas eletrônicas com os dados hidrometeológicos da estação que serão utilizados para pesquisas no monitoramento climático da região do curimataú oriental paraibano.

DADOS DE 2019

JANEIRO

Resumo Diário janeiro de 2019 – Dados da Estação Metereológica – UEPB VIII
Data Temperatura (°C) Umidade Relativa (%) Acum. Chuva (mm) Pressão Méd. (hPa)
Mínima Média Máxima Mínima Média Máxima
01/01/2019 21,628 25,851 33,157 53,2 78,6 97,5 0 951,11
02/01/2019 21,772 25,521 32,355 48,2 77,2 95,0 0 951,51
03/01/2019 20,770 24,978 31,944 50,8 78,6 95,9 0 950,52
04/01/2019 20,436 25,171 31,357 53,8 79,9 97,7 0 950,97
05/01/2019 22,034 25,175 31,255 56,0 81,5 96,6 0 950,91
06/01/2019 21,246 24,708 30,621 55,2 80,4 96,9 0 950,60
07/01/2019 21,032 24,476 31,230 53,1 83,6 97,1 0 950,15
08/01/2019 21,270 24,524 29,515 63,3 84,8 97,6 0 950,18
09/01/2019 21,485 24,425 30,621 58,4 84,4 98,8 0 949,62
10/01/2019 21,199 25,074 32,150 50,8 77,7 96,7 0 949,35
11/01/2019 20,555 25,449 32,150 45,5 74,8 97,1 0 949,55
12/01/2019 21,437 25,134 33,027 50,3 76,9 91,0 0 950,41
13/01/2019 20,341 25,511 32,924 43,4 77,6 96,9 0 950,50
14/01/2019 21,628 25,539 31,510 56,7 81,4 96,5 0 950,02
15/01/2019 20,174 24,875 32,047 51,1 78,1 96,9 0 950,87
16/01/2019 21,151 25,694 32,562 51,5 78,3 95,1 0 951,12
17/01/2019 21,819 25,638 32,073 50,6 81,5 97,0 0 950,45
18/01/2019 21,485 25,302 33,183 53,1 81,5 98,9 0 950,57
19/01/2019 20,770 25,137 32,924 49,7 82,2 98,7 2 950,29
20/01/2019 22,106 25,219 30,318 58,7 83,8 99,1 0 951,19
21/01/2019 21,604 25,395 31,689 47,1 76,1 94,9 0 951,02
22/01/2019 19,817 25,014 31,561 46,6 78,5 97,7 0 950,54
23/01/2019 21,628 25,718 33,495 43,1 74,7 95,2 0 950,65
24/01/2019 21,294 25,787 32,846 44,8 75,0 96,9 0 950,06
25/01/2019 21,700 25,986 32,768 43,5 73,4 94,4 0 949,62
26/01/2019 19,984 22,974 29,464 67,0 91,3 99,4 11 951,73
27/01/2019 20,650 24,645 31,153 59,0 83,8 99,1 0 951,26
28/01/2019 20,246 24,232 31,204 59,6 84,3 97,7 1 950,60
29/01/2019 20,746 25,065 31,740 58,3 80,5 98,4 0 949,90
30/01/2019 21,079 25,688 32,407 49,3 76,0 92,5 0 949,65
31/01/2019 22,202 25,879 33,261 50,8 78,5 93,1 0 949,53
Resumo Mensal janeiro de 2019 – Dados da Estação Metereológica – UEPB VIII
Mês Temperatura (°C) Umidade Relativa (%) Acum. Chuva (mm) Pressão Méd. (hPa)
Mínima Média Máxima Mínima Média Máxima
janeiro 19,817 25,154 33,495 43,1 79,8 99,4 14,6 950,47

DADOS JANEIRO 2019
DADOS JANEIRO 2019
DADOS-JANEIRO-2019.ods
129.3 KiB
118 Downloads
Detalhes

FEVEREIRO

Resumo Diário fevereiro de 2019 – Dados da Estação Metereológica – UEPB VIII
Data Temperatura (°C) Umidade Relativa (%) Acum. Chuva (mm) Pressão Méd. (hPa)
Mínima Média Máxima Mínima Média Máxima
01/02/2019 21,509 25,574 33,339 49,7 79,5 95,8 0 949,84
02/02/2019 21,342 25,112 31,382 53,3 81,6 98,6 0 950,08
03/02/2019 20,412 23,851 31,740 61,4 90,7 99,0 10 949,84
04/02/2019 21,485 24,926 31,001 66,1 89,3 99,6 2 949,06
05/02/2019 21,270 23,372 27,186 86,4 97,9 100,0 11 949,16
06/02/2019 20,698 23,172 26,842 85,7 97,3 100,0 5 949,62
07/02/2019 21,342 24,458 29,966 65,7 86,5 100,0 2 948,99
08/02/2019 20,126 23,946 29,840 60,7 85,1 99,5 1 948,55
09/02/2019 21,079 25,078 30,874 54,5 81,5 99,4 1 948,15
10/02/2019 21,557 23,221 26,744 82,9 94,5 99,6 1 949,27
11/02/2019 21,557 24,372 29,865 71,2 88,8 98,1 1 949,88
12/02/2019 21,151 24,609 29,389 67,9 86,4 98,1 1 949,56
13/02/2019 20,936 22,061 23,497 94,3 98,4 100,0 1 950,99
14/02/2019 21,533 24,381 29,140 74,0 90,9 99,4 1 950,77
15/02/2019 22,561 24,094 29,140 79,5 95,3 100,0 0 950,09
16/02/2019 21,390 23,927 29,389 75,4 96,1 100,0 1 949,90
17/02/2019 22,441 24,836 29,590 75,4 93,1 100,0 0 950,12
18/02/2019 21,867 23,431 26,744 92,8 99,1 100,0 0 950,56
19/02/2019 21,676 24,923 30,773 66,9 91,2 100,0 1 949,56
20/02/2019 20,317 24,609 29,991 65,5 88,6 99,7 0 948,65
21/02/2019 21,270 24,996 30,419 67,8 89,0 100,0 0 949,53
22/02/2019 22,034 25,134 30,293 68,3 89,8 100,0 0 950,74
23/02/2019 22,130 23,131 26,061 88,8 98,3 100,0 0 950,58
24/02/2019 22,298 24,403 28,866 80,6 94,2 100,0 0 949,33
25/02/2019 21,509 24,205 29,065 72,9 94,0 100,0 0 949,47
26/02/2019 20,055 24,551 28,791 73,7 90,6 100,0 0 950,08
27/02/2019 21,939 24,978 29,916 71,9 90,6 100,0 0 950,59
28/02/2019 21,676 24,126 28,816 71,8 91,5 100,0 0 951,28
Resumo Mensal fevereiro de 2019 – Dados da Estação Metereológica – UEPB VIII
Mês Temperatura (°C) Umidade Relativa (%) Acum. Chuva (mm) Pressão Méd. (hPa)
Mínima Média Máxima Mínima Média Máxima
fevereiro 20,055 24,267 33,339 49,7 91,1 100,0 40,0 949,79

DADOS FEVEREIRO 2019
DADOS FEVEREIRO 2019
DADOS-FEVEREIRO-2019.ods
121.9 KiB
120 Downloads
Detalhes

MARÇO


Resumo Diário março de 2019 – Dados da Estação Metereológica – UEPB VIII
Data Temperatura (°C) Umidade Relativa (%) Acum. Chuva (mm) Pressão Méd. (hPa)
Mínima Média Máxima Mínima Média Máxima
01/03/2019 22,106 23,485 26,989 80,6 94,1 100,0 0 951,41
02/03/2019 21,581 23,323 26,353 83,4 95,4 100,0 0 951,03
03/03/2019 21,199 23,061 26,916 84,6 96,5 100,0 0 950,71
04/03/2019 21,008 23,352 26,867 86,2 97,0 100,0 0 951,24
05/03/2019 21,795 24,120 27,875 76,9 91,5 100,0 0 950,80
06/03/2019 20,936 24,326 29,265 68,4 89,1 100,0 0 951,36
07/03/2019 21,366 24,484 29,540 68,7 87,8 99,5 0 951,60
08/03/2019 21,127 24,760 30,369 67,4 88,3 100,0 0 951,03
09/03/2019 21,437 24,675 30,066 58,7 85,5 99,0 0 950,30
10/03/2019 20,603 24,220 30,041 69,1 89,6 100,0 1 949,66
11/03/2019 21,604 24,816 29,840 67,2 87,8 99,9 0 949,63
12/03/2019 21,366 23,090 25,963 91,0 98,7 100,0 27 949,93
13/03/2019 22,058 23,196 25,404 92,5 98,2 100,0 0 949,95
14/03/2019 21,294 23,887 28,667 83,7 96,8 100,0 12 949,30
15/03/2019 22,082 24,123 28,221 76,8 93,6 100,0 0 949,05
16/03/2019 20,698 24,295 29,240 66,4 88,3 100,0 0 949,38
17/03/2019 21,628 24,594 29,490 73,7 91,9 100,0 0 949,84
18/03/2019 21,819 23,422 27,530 82,0 96,4 100,0 6 949,90
19/03/2019 21,628 24,703 29,815 76,6 93,7 100,0 0 948,75
20/03/2019 21,700 25,485 31,586 67,1 89,1 100,0 0 948,19
21/03/2019 22,202 25,012 31,765 66,0 91,7 100,0 6 948,89
22/03/2019 22,250 25,546 31,103 68,9 90,6 100,0 0 949,72
23/03/2019 22,561 24,821 30,444 74,9 92,5 100,0 0 950,18
24/03/2019 22,321 25,286 30,117 71,1 89,1 100,0 0 950,08
25/03/2019 21,843 25,112 31,077 55,2 85,3 100,0 0 949,66
26/03/2019 21,270 24,124 30,142 69,1 91,9 100,0 2 949,46
27/03/2019 20,579 23,991 28,965 73,2 92,1 100,0 10 950,94
28/03/2019 20,341 23,490 28,023 81,8 94,7 100,0 0 951,16
29/03/2019 21,175 24,476 29,140 76,3 90,8 99,2 0 950,83
30/03/2019 22,058 24,713 29,015 76,4 93,4 100,0 2 949,59
31/03/2019 21,963 23,425 26,256 85,0 96,4 100,0 1 949,47
 

 

Resumo Mensal março de 2019 – Dados da Estação Metereológica – UEPB VIII
Mês Temperatura (°C) Umidade Relativa (%) Acum. Chuva (mm) Pressão Méd. (hPa)
Mínima Média Máxima Mínima Média Máxima
março 20,341 24,240 31,765 55,2 92,2 100,0 68,4 950,10

DADOS MARÇO 2019
DADOS MARÇO 2019
DADOS-MARCO-2019.ods
135.5 KiB
132 Downloads
Detalhes

ABRIL


 

DADOS DE 2018

JANEIRO


FEVEREIRO


MARÇO


ABRIL


MAIO


JUNHO


JULHO


AGOSTO


SETEMBRO


OUTUBRO


NOVEMBRO


DEZEMBRO


 

 

FAF deciding on filters on post to be syndicated:

Programa de Educação Ambiental da UEPB inscreve estudantes para visita ao Parque Estadual Pedra da Boca

Array ( [post_title] => Programa de Educação Ambiental da UEPB inscreve estudantes para visita ao Parque Estadual Pedra da Boca [post_content] =>

No próximo dia 23 de novembro, o programa de extensão “Educação Ambiental na Pedra da Boca”, desenvolvido pelo Câmpus VIII da Universidade Estadual da Paraíba (UEPB), em Araruna, promoverá uma visita ecológica ao Parque Estadual Pedra da Boca e está abrindo 50 vagas para alunos dos diversos câmpus da Instituição vivenciarem as riquezas geológicas, biológicas, históricas e culturais do local. Aqueles que desejarem participar desta atividade devem realizar inscrição on-line, clicando AQUI.

O ônibus que levará a equipe para o Parque Estadual Pedra da Boca sairá da Central de Integração Acadêmica da UEPB, no Câmpus de Bodocongó, em Campina Grande, às 6h do próximo sábado (23). Outro ônibus sairá às 7h do Câmpus VIII. Conforme a professora Alessandra Brandão, coordenadora do programa extensionista, “para quem gosta de natureza, o parque é um paraíso, um verdadeiro patrimônio geológico, com cavernas e formações rochosas variadas, ideais para a prática de esportes de aventura. Em algumas das grutas do parque existem pinturas rupestres, o que é um atrativo bônus para os visitantes”.

Na estrutura do parque há a Pedra da Caveira, a Mata do Gemedouro, a Pedra da Santa, o Açude do Calabouço e a Pedra da Boca, que dá nome ao parque. O programa “Educação Ambiental na Pedra da Boca” vem sendo desenvolvido desde 2018 e uma de suas ações é levar estudantes para conhecer o espaço, com o intuito de aumentar a conscientização sobre essa importante unidade de conservação da Paraíba. Outras informações sobre o passeio ecológico podem ser obtidas pelo telefone (83) 99647-7464.

Texto: Tatiana Brandão

O post Programa de Educação Ambiental da UEPB inscreve estudantes para visita ao Parque Estadual Pedra da Boca apareceu primeiro em UEPB.

[post_excerpt] =>

No próximo dia 23 de novembro, o programa de extensão “Educação Ambiental na Pedra da Boca”, desenvolvido pelo Câmpus VIII da Universidade Estadual da Paraíba (UEPB), em Araruna, promoverá uma visita ecológica ao Parque Estadual Pedra da Boca e está abrindo 50 vagas para alunos dos diversos câmpus da Instituição vivenciarem as riquezas geológicas, biológicas, Leia Mais...

O post Programa de Educação Ambiental da UEPB inscreve estudantes para visita ao Parque Estadual Pedra da Boca apareceu primeiro em UEPB.

[post_date_gmt] => 2019-11-19 11:42:49 [post_date] => 2019-11-19 11:42:49 [post_modified_gmt] => 2019-11-19 11:42:49 [post_modified] => 2019-11-19 11:42:49 [post_status] => publish [comment_status] => closed [ping_status] => closed [guid] => http://www.uepb.edu.br/?p=53067 [meta] => Array ( [enclosure] => Array ( [0] => ) [syndication_source] => CCTS – UEPB [syndication_source_uri] => http://www.uepb.edu.br [syndication_source_id] => http://www.uepb.edu.br/category/centros/ccts/feed/ [rss:comments] => http://www.uepb.edu.br/programa-de-educacao-ambiental-da-uepb-inscreve-estudantes-para-visita-ao-parque-estadual-pedra-da-boca/#respond [wfw:commentRSS] => http://www.uepb.edu.br/programa-de-educacao-ambiental-da-uepb-inscreve-estudantes-para-visita-ao-parque-estadual-pedra-da-boca/feed/ [syndication_feed] => http://www.uepb.edu.br/category/centros/ccts/feed/ [syndication_feed_id] => 3 [syndication_permalink] => http://www.uepb.edu.br/programa-de-educacao-ambiental-da-uepb-inscreve-estudantes-para-visita-ao-parque-estadual-pedra-da-boca/ [syndication_item_hash] => Array ( [0] => 1797b7fc732c819a91d42a733ab63545 [1] => a390ae179c4d4e1e6a4c7b7d89c1b489 ) ) [post_type] => post [post_author] => 25 [tax_input] => Array ( [category] => Array ( [0] => 7 [1] => 2 [2] => 8 ) [post_tag] => Array ( ) [post_format] => Array ( ) ) [post_name] => programa-de-educacao-ambiental-da-uepb-inscreve-estudantes-para-visita-ao-parque-estadual-pedra-da-boca )

Decide filter: Returning post, everything seems orderly :Programa de Educação Ambiental da UEPB inscreve estudantes para visita ao Parque Estadual Pedra da Boca

Array ( [post_title] => Programa de Educação Ambiental da UEPB inscreve estudantes para visita ao Parque Estadual Pedra da Boca [post_content] =>

No próximo dia 23 de novembro, o programa de extensão “Educação Ambiental na Pedra da Boca”, desenvolvido pelo Câmpus VIII da Universidade Estadual da Paraíba (UEPB), em Araruna, promoverá uma visita ecológica ao Parque Estadual Pedra da Boca e está abrindo 50 vagas para alunos dos diversos câmpus da Instituição vivenciarem as riquezas geológicas, biológicas, históricas e culturais do local. Aqueles que desejarem participar desta atividade devem realizar inscrição on-line, clicando AQUI.

O ônibus que levará a equipe para o Parque Estadual Pedra da Boca sairá da Central de Integração Acadêmica da UEPB, no Câmpus de Bodocongó, em Campina Grande, às 6h do próximo sábado (23). Outro ônibus sairá às 7h do Câmpus VIII. Conforme a professora Alessandra Brandão, coordenadora do programa extensionista, “para quem gosta de natureza, o parque é um paraíso, um verdadeiro patrimônio geológico, com cavernas e formações rochosas variadas, ideais para a prática de esportes de aventura. Em algumas das grutas do parque existem pinturas rupestres, o que é um atrativo bônus para os visitantes”.

Na estrutura do parque há a Pedra da Caveira, a Mata do Gemedouro, a Pedra da Santa, o Açude do Calabouço e a Pedra da Boca, que dá nome ao parque. O programa “Educação Ambiental na Pedra da Boca” vem sendo desenvolvido desde 2018 e uma de suas ações é levar estudantes para conhecer o espaço, com o intuito de aumentar a conscientização sobre essa importante unidade de conservação da Paraíba. Outras informações sobre o passeio ecológico podem ser obtidas pelo telefone (83) 99647-7464.

Texto: Tatiana Brandão

O post Programa de Educação Ambiental da UEPB inscreve estudantes para visita ao Parque Estadual Pedra da Boca apareceu primeiro em UEPB.

[post_excerpt] =>

No próximo dia 23 de novembro, o programa de extensão “Educação Ambiental na Pedra da Boca”, desenvolvido pelo Câmpus VIII da Universidade Estadual da Paraíba (UEPB), em Araruna, promoverá uma visita ecológica ao Parque Estadual Pedra da Boca e está abrindo 50 vagas para alunos dos diversos câmpus da Instituição vivenciarem as riquezas geológicas, biológicas, Leia Mais...

O post Programa de Educação Ambiental da UEPB inscreve estudantes para visita ao Parque Estadual Pedra da Boca apareceu primeiro em UEPB.

[post_date_gmt] => 2019-11-19 11:42:49 [post_date] => 2019-11-19 11:42:49 [post_modified_gmt] => 2019-11-19 11:42:49 [post_modified] => 2019-11-19 11:42:49 [post_status] => publish [comment_status] => closed [ping_status] => closed [guid] => http://www.uepb.edu.br/?p=53067 [meta] => Array ( [enclosure] => Array ( [0] => ) [syndication_source] => CCTS – UEPB [syndication_source_uri] => http://www.uepb.edu.br [syndication_source_id] => http://www.uepb.edu.br/category/centros/ccts/feed/ [rss:comments] => http://www.uepb.edu.br/programa-de-educacao-ambiental-da-uepb-inscreve-estudantes-para-visita-ao-parque-estadual-pedra-da-boca/#respond [wfw:commentRSS] => http://www.uepb.edu.br/programa-de-educacao-ambiental-da-uepb-inscreve-estudantes-para-visita-ao-parque-estadual-pedra-da-boca/feed/ [syndication_feed] => http://www.uepb.edu.br/category/centros/ccts/feed/ [syndication_feed_id] => 3 [syndication_permalink] => http://www.uepb.edu.br/programa-de-educacao-ambiental-da-uepb-inscreve-estudantes-para-visita-ao-parque-estadual-pedra-da-boca/ [syndication_item_hash] => Array ( [0] => 1797b7fc732c819a91d42a733ab63545 [1] => a390ae179c4d4e1e6a4c7b7d89c1b489 ) ) [post_type] => post [post_author] => 25 [tax_input] => Array ( [category] => Array ( [0] => 7 [1] => 2 [2] => 8 ) [post_tag] => Array ( ) [post_format] => Array ( ) ) [post_name] => programa-de-educacao-ambiental-da-uepb-inscreve-estudantes-para-visita-ao-parque-estadual-pedra-da-boca )

FAF deciding on filters on post to be syndicated:

Reunião da Sociedade NE/N de Pesquisa Odontológica discute uso de tecnologias no diagnóstico bucal

Array ( [post_title] => Reunião da Sociedade NE/N de Pesquisa Odontológica discute uso de tecnologias no diagnóstico bucal [post_content] =>

O uso da tecnologia e de recursos cada vez mais avançados nos tratamentos odontológicos e sua aplicação no Sistema Único de Saúde (SUS) tomou conta da agenda de discussões no primeiro dia da 21ª Reunião da Sociedade Nordeste/Norte de Pesquisa Odontológica, promovida pela Universidade Estadual da Paraíba (UEPB), através do Programa de Pós-Graduação em Odontologia (PPGO). O evento, realizado na Federação das Indústrias do Estado da Paraíba (FIEP), reúne até quarta-feira (13) quase 500 pessoas entre estudantes de pós-graduação, professores e cirurgiões dentistas de importantes instituições do Norte/Nordeste.

Na programação constam apresentações orais, de painéis, apresentação de vídeo-abstract e mesas redondas com temas ligados aos impactos da pós-graduação e sua visibilidade. A primeira atividade do evento foi a mesa redonda “O impacto de inovações tecnológicas e mídias no diagnóstico de patologias orais”, conduzida pelos professores Danyel Elias da Cruz Perez, da Universidade Federal de Pernambuco (UFPE); Paulo Rogério Ferreti Bonan, da Universidade Federal da Paraíba (UFPB); e pela professora Éricka Janine Dantas da Silveira, da Universidade Federal do Rio Grande do Norte (UFRN). A atividade foi mediada pelo professor da UEPB, Sérgio D’Avila Cavalcanti.

Ao abrir o debate, professor Danyel Elias falou sobre o uso de tecnologias para o uso de lesões bucais, sobretudo na especialidade de Patologia Oral. Em sua explanação, ele mostrou como as lâminas digitalizadas e scaneadas podem ser utilizadas para o ensino, para a pesquisa e para o diagnóstico, ressaltando que, no ensino, a vantagem é que essa tecnologia torna o aprendizado mais atrativo, visto que os alunos são mais familiarizados com as ferramentas modernas. Para o diagnóstico, a vantagem é permitir aos patologistas fazer interconsultas e emitir opiniões apenas com o acesso à internet. Danyel enfatizou que a tecnologia tem sido atualizada e aperfeiçoada a cada dia, caminhando para revolucionar os tratamentos odontológicos no país, especificamente no diagnóstico de lesões do tecido mole da boca.

O uso das mídias digitais auxiliando no diagnóstico foi abordado pelo professor e cirurgião Paulo Rogério Ferreti Bonan, que citou algumas experiências na UFPB, a partir do emprego das tecnologias aplicadas. Ele destacou que, hoje, os novos odontólogos já estão utilizando diversas plataformas nos tratamentos, a exemplo do youtube e das próprias redes sociais como o WhatsApp e Instagram, o que tem favorecido o tratamento. Além de permitir uma comunicação melhor entre o cirurgião-dentista e o paciente, essas ferramentas, segundo ele, favorecem a troca de experiências entre os profissionais. “Nós temos feito uso dessas plataformas, fazendo uma comunicação direta não somente com os colegas, mas também com os pacientes. E tem sido uma ferramenta muito útil, que tem nos auxiliado”, enfatizou.

Já a professora Éricka Janine abordou a utilização de tecnologias no aperfeiçoamento de diagnóstico de lesões orais. Ela tratou especificamente do uso de modernas tecnologias de imagens, que têm auxiliado o cirurgião-dentista no diagnóstico. Para Éricka, o uso das novas tecnologias tem contribuído bastante para o aperfeiçoamento do diagnóstico de doenças orais. As redes sociais, segundo ela, têm possibilitado a realização de consultas com eficácia por profissionais que muitas vezes estão em locais distantes do paciente.

Um dos focos do evento é conhecer e debater as mais recentes pesquisas realizadas dentro das pós-graduações das regiões Norte e Nordeste no campo odontológico. A conferência “Impacto das pesquisas da Pele da Tilápia realizadas nas Pós-Graduações do Norte e Nordeste na Sociedade”, proferida pela professora Ana Paula Negreiros Nunes Alves da Universidade Federal do Ceará (UFC), mostrou como os estudos científicos podem melhorar a vida das pessoas que dependem dos serviços públicos. Ela ressaltou que essa pesquisa ganhou visibilidade nacional e internacional pelos resultados alcançados com o tratamento de pacientes que sofreram queimaduras de 2º grau, superficial e profundo.

A tecnologia simples, segundo ela, assegura a cicatrização na pele humana das lesões causadas pelas queimaduras. A professora disse que o sucesso da pesquisa abriu o horizonte para a utilização da pele da tilápia para outras especialidades, como a Odontologia, e mostra como a produção científica surgida nas universidades pode impactar na população. Dentro da programação, e simultaneamente às conferências, foi realizada a reunião com os coordenadores de Programas de Pós-Graduação em Odontologia das regiões Nordeste e Norte com a Coordenação da Área de Odontologia da Coordenação de Aperfeiçoamento de Pessoal de Nível Superior (Capes).

Presidente da reunião, a professora da UEPB, Daniela Pita de Melo, disse que os coordenadores debateram sobre o que vem sendo feito nos programas de pós-graduação para contemplar a ficha de avaliação imposta pela Capes e procuraram ainda mostrar qual o impacto desses programas para a sociedade. A meta foi traçar estratégias para alcançar o nível de excelência, visto que não existe nenhum programa com nota 6 no Norte e Nordeste. No total, 12 coordenadores participaram da reunião, que terminou com um debate na parte da tarde. Daniela enfatizou que a pós-graduação da UEPB está em fase de consolidação, havendo uma vontade da Universidade em fazer políticas de incentivo, visto que existe potencial para melhoras.

Com conceito 4 da Capes e 10 anos de existência, o programa da UEPB conta com Mestrado e Doutorado, qualificado quadro de docentes e busca avançar na política de internacionalização. “Nós estamos em um momento crescente de destaque dentro da nossa Instituição”, frisou Daniela. Presidente da Sociedade Nordeste Norte e Pesquisa Odontológica e coordenador geral do evento, o professor Sérgio D’Avila Cavalcanti ressaltou que, durante os três dias de atividades, os professores convidados vão debater sobre a visibilidade da pesquisa na pós-graduação e sua inserção social.

Sérgio D’Avila observou que o uso da tecnologia pode representar diminuição de custos sem comprometer a qualidade do diagnóstico. “Estamos democratizando o ensino da Odontologia. As mídias sociais estão inseridas nas nossas vidas e precisamos discutir isso na Odontologia”, salientou o professor. A chefe do Departamento de Odontologia, professora Nadja Maria da Silva Oliveira, classificou toda a discussão promovida no evento como atual e em consonância com o conceito de saúde 4.0, que consiste em utilizar recursos tecnológicos no atendimento médico.

Texto: Severino Lopes
Fotos: Paizinha Lemos

O post Reunião da Sociedade NE/N de Pesquisa Odontológica discute uso de tecnologias no diagnóstico bucal apareceu primeiro em UEPB.

[post_excerpt] =>

O uso da tecnologia e de recursos cada vez mais avançados nos tratamentos odontológicos e sua aplicação no Sistema Único de Saúde (SUS) tomou conta da agenda de discussões no primeiro dia da 21ª Reunião da Sociedade Nordeste/Norte de Pesquisa Odontológica, promovida pela Universidade Estadual da Paraíba (UEPB), através do Programa de Pós-Graduação em Odontologia Leia Mais...

O post Reunião da Sociedade NE/N de Pesquisa Odontológica discute uso de tecnologias no diagnóstico bucal apareceu primeiro em UEPB.

[post_date_gmt] => 2019-11-12 14:45:08 [post_date] => 2019-11-12 14:45:08 [post_modified_gmt] => 2019-11-12 14:45:08 [post_modified] => 2019-11-12 14:45:08 [post_status] => publish [comment_status] => closed [ping_status] => closed [guid] => http://www.uepb.edu.br/?p=52873 [meta] => Array ( [enclosure] => Array ( [0] => ) [syndication_source] => CCTS – UEPB [syndication_source_uri] => http://www.uepb.edu.br [syndication_source_id] => http://www.uepb.edu.br/category/centros/ccts/feed/ [rss:comments] => http://www.uepb.edu.br/21a-reuniao-da-sociedade-nordeste-norte-de-pesquisa-odontologica-discute-uso-de-tecnologias-no-diagnostico-bucal/#respond [wfw:commentRSS] => http://www.uepb.edu.br/21a-reuniao-da-sociedade-nordeste-norte-de-pesquisa-odontologica-discute-uso-de-tecnologias-no-diagnostico-bucal/feed/ [syndication_feed] => http://www.uepb.edu.br/category/centros/ccts/feed/ [syndication_feed_id] => 3 [syndication_permalink] => http://www.uepb.edu.br/21a-reuniao-da-sociedade-nordeste-norte-de-pesquisa-odontologica-discute-uso-de-tecnologias-no-diagnostico-bucal/ [syndication_item_hash] => Array ( [0] => ad50f6658a29301a28bf3bfe9e50f6d1 [1] => 48b23cf54045b4fb4a2c23bb278210cb ) ) [post_type] => post [post_author] => 25 [tax_input] => Array ( [category] => Array ( [0] => 19 [1] => 7 [2] => 2 ) [post_tag] => Array ( ) [post_format] => Array ( ) ) [post_name] => 21a-reuniao-da-sociedade-nordeste-norte-de-pesquisa-odontologica-discute-uso-de-tecnologias-no-diagnostico-bucal )

Decide filter: Returning post, everything seems orderly :Reunião da Sociedade NE/N de Pesquisa Odontológica discute uso de tecnologias no diagnóstico bucal

Array ( [post_title] => Reunião da Sociedade NE/N de Pesquisa Odontológica discute uso de tecnologias no diagnóstico bucal [post_content] =>

O uso da tecnologia e de recursos cada vez mais avançados nos tratamentos odontológicos e sua aplicação no Sistema Único de Saúde (SUS) tomou conta da agenda de discussões no primeiro dia da 21ª Reunião da Sociedade Nordeste/Norte de Pesquisa Odontológica, promovida pela Universidade Estadual da Paraíba (UEPB), através do Programa de Pós-Graduação em Odontologia (PPGO). O evento, realizado na Federação das Indústrias do Estado da Paraíba (FIEP), reúne até quarta-feira (13) quase 500 pessoas entre estudantes de pós-graduação, professores e cirurgiões dentistas de importantes instituições do Norte/Nordeste.

Na programação constam apresentações orais, de painéis, apresentação de vídeo-abstract e mesas redondas com temas ligados aos impactos da pós-graduação e sua visibilidade. A primeira atividade do evento foi a mesa redonda “O impacto de inovações tecnológicas e mídias no diagnóstico de patologias orais”, conduzida pelos professores Danyel Elias da Cruz Perez, da Universidade Federal de Pernambuco (UFPE); Paulo Rogério Ferreti Bonan, da Universidade Federal da Paraíba (UFPB); e pela professora Éricka Janine Dantas da Silveira, da Universidade Federal do Rio Grande do Norte (UFRN). A atividade foi mediada pelo professor da UEPB, Sérgio D’Avila Cavalcanti.

Ao abrir o debate, professor Danyel Elias falou sobre o uso de tecnologias para o uso de lesões bucais, sobretudo na especialidade de Patologia Oral. Em sua explanação, ele mostrou como as lâminas digitalizadas e scaneadas podem ser utilizadas para o ensino, para a pesquisa e para o diagnóstico, ressaltando que, no ensino, a vantagem é que essa tecnologia torna o aprendizado mais atrativo, visto que os alunos são mais familiarizados com as ferramentas modernas. Para o diagnóstico, a vantagem é permitir aos patologistas fazer interconsultas e emitir opiniões apenas com o acesso à internet. Danyel enfatizou que a tecnologia tem sido atualizada e aperfeiçoada a cada dia, caminhando para revolucionar os tratamentos odontológicos no país, especificamente no diagnóstico de lesões do tecido mole da boca.

O uso das mídias digitais auxiliando no diagnóstico foi abordado pelo professor e cirurgião Paulo Rogério Ferreti Bonan, que citou algumas experiências na UFPB, a partir do emprego das tecnologias aplicadas. Ele destacou que, hoje, os novos odontólogos já estão utilizando diversas plataformas nos tratamentos, a exemplo do youtube e das próprias redes sociais como o WhatsApp e Instagram, o que tem favorecido o tratamento. Além de permitir uma comunicação melhor entre o cirurgião-dentista e o paciente, essas ferramentas, segundo ele, favorecem a troca de experiências entre os profissionais. “Nós temos feito uso dessas plataformas, fazendo uma comunicação direta não somente com os colegas, mas também com os pacientes. E tem sido uma ferramenta muito útil, que tem nos auxiliado”, enfatizou.

Já a professora Éricka Janine abordou a utilização de tecnologias no aperfeiçoamento de diagnóstico de lesões orais. Ela tratou especificamente do uso de modernas tecnologias de imagens, que têm auxiliado o cirurgião-dentista no diagnóstico. Para Éricka, o uso das novas tecnologias tem contribuído bastante para o aperfeiçoamento do diagnóstico de doenças orais. As redes sociais, segundo ela, têm possibilitado a realização de consultas com eficácia por profissionais que muitas vezes estão em locais distantes do paciente.

Um dos focos do evento é conhecer e debater as mais recentes pesquisas realizadas dentro das pós-graduações das regiões Norte e Nordeste no campo odontológico. A conferência “Impacto das pesquisas da Pele da Tilápia realizadas nas Pós-Graduações do Norte e Nordeste na Sociedade”, proferida pela professora Ana Paula Negreiros Nunes Alves da Universidade Federal do Ceará (UFC), mostrou como os estudos científicos podem melhorar a vida das pessoas que dependem dos serviços públicos. Ela ressaltou que essa pesquisa ganhou visibilidade nacional e internacional pelos resultados alcançados com o tratamento de pacientes que sofreram queimaduras de 2º grau, superficial e profundo.

A tecnologia simples, segundo ela, assegura a cicatrização na pele humana das lesões causadas pelas queimaduras. A professora disse que o sucesso da pesquisa abriu o horizonte para a utilização da pele da tilápia para outras especialidades, como a Odontologia, e mostra como a produção científica surgida nas universidades pode impactar na população. Dentro da programação, e simultaneamente às conferências, foi realizada a reunião com os coordenadores de Programas de Pós-Graduação em Odontologia das regiões Nordeste e Norte com a Coordenação da Área de Odontologia da Coordenação de Aperfeiçoamento de Pessoal de Nível Superior (Capes).

Presidente da reunião, a professora da UEPB, Daniela Pita de Melo, disse que os coordenadores debateram sobre o que vem sendo feito nos programas de pós-graduação para contemplar a ficha de avaliação imposta pela Capes e procuraram ainda mostrar qual o impacto desses programas para a sociedade. A meta foi traçar estratégias para alcançar o nível de excelência, visto que não existe nenhum programa com nota 6 no Norte e Nordeste. No total, 12 coordenadores participaram da reunião, que terminou com um debate na parte da tarde. Daniela enfatizou que a pós-graduação da UEPB está em fase de consolidação, havendo uma vontade da Universidade em fazer políticas de incentivo, visto que existe potencial para melhoras.

Com conceito 4 da Capes e 10 anos de existência, o programa da UEPB conta com Mestrado e Doutorado, qualificado quadro de docentes e busca avançar na política de internacionalização. “Nós estamos em um momento crescente de destaque dentro da nossa Instituição”, frisou Daniela. Presidente da Sociedade Nordeste Norte e Pesquisa Odontológica e coordenador geral do evento, o professor Sérgio D’Avila Cavalcanti ressaltou que, durante os três dias de atividades, os professores convidados vão debater sobre a visibilidade da pesquisa na pós-graduação e sua inserção social.

Sérgio D’Avila observou que o uso da tecnologia pode representar diminuição de custos sem comprometer a qualidade do diagnóstico. “Estamos democratizando o ensino da Odontologia. As mídias sociais estão inseridas nas nossas vidas e precisamos discutir isso na Odontologia”, salientou o professor. A chefe do Departamento de Odontologia, professora Nadja Maria da Silva Oliveira, classificou toda a discussão promovida no evento como atual e em consonância com o conceito de saúde 4.0, que consiste em utilizar recursos tecnológicos no atendimento médico.

Texto: Severino Lopes
Fotos: Paizinha Lemos

O post Reunião da Sociedade NE/N de Pesquisa Odontológica discute uso de tecnologias no diagnóstico bucal apareceu primeiro em UEPB.

[post_excerpt] =>

O uso da tecnologia e de recursos cada vez mais avançados nos tratamentos odontológicos e sua aplicação no Sistema Único de Saúde (SUS) tomou conta da agenda de discussões no primeiro dia da 21ª Reunião da Sociedade Nordeste/Norte de Pesquisa Odontológica, promovida pela Universidade Estadual da Paraíba (UEPB), através do Programa de Pós-Graduação em Odontologia Leia Mais...

O post Reunião da Sociedade NE/N de Pesquisa Odontológica discute uso de tecnologias no diagnóstico bucal apareceu primeiro em UEPB.

[post_date_gmt] => 2019-11-12 14:45:08 [post_date] => 2019-11-12 14:45:08 [post_modified_gmt] => 2019-11-12 14:45:08 [post_modified] => 2019-11-12 14:45:08 [post_status] => publish [comment_status] => closed [ping_status] => closed [guid] => http://www.uepb.edu.br/?p=52873 [meta] => Array ( [enclosure] => Array ( [0] => ) [syndication_source] => CCTS – UEPB [syndication_source_uri] => http://www.uepb.edu.br [syndication_source_id] => http://www.uepb.edu.br/category/centros/ccts/feed/ [rss:comments] => http://www.uepb.edu.br/21a-reuniao-da-sociedade-nordeste-norte-de-pesquisa-odontologica-discute-uso-de-tecnologias-no-diagnostico-bucal/#respond [wfw:commentRSS] => http://www.uepb.edu.br/21a-reuniao-da-sociedade-nordeste-norte-de-pesquisa-odontologica-discute-uso-de-tecnologias-no-diagnostico-bucal/feed/ [syndication_feed] => http://www.uepb.edu.br/category/centros/ccts/feed/ [syndication_feed_id] => 3 [syndication_permalink] => http://www.uepb.edu.br/21a-reuniao-da-sociedade-nordeste-norte-de-pesquisa-odontologica-discute-uso-de-tecnologias-no-diagnostico-bucal/ [syndication_item_hash] => Array ( [0] => ad50f6658a29301a28bf3bfe9e50f6d1 [1] => 48b23cf54045b4fb4a2c23bb278210cb ) ) [post_type] => post [post_author] => 25 [tax_input] => Array ( [category] => Array ( [0] => 19 [1] => 7 [2] => 2 ) [post_tag] => Array ( ) [post_format] => Array ( ) ) [post_name] => 21a-reuniao-da-sociedade-nordeste-norte-de-pesquisa-odontologica-discute-uso-de-tecnologias-no-diagnostico-bucal )

FAF deciding on filters on post to be syndicated:

Biblioteca Setorial do Centro de Ciências, Tecnologia e Saúde da UEPB inaugura nova estrutura

Array ( [post_title] => Biblioteca Setorial do Centro de Ciências, Tecnologia e Saúde da UEPB inaugura nova estrutura [post_content] =>

A Biblioteca Severino Perillo de Oliveira, localizada no Câmpus VIII da Universidade Estadual da Paraíba (UEPB), na cidade de Araruna, inaugurou, no último dia 25 de setembro, sua nova estrutura que conta com mais cinco dependências. A biblioteca passou de uma área de 259,23 metros quadrados para 390,95 metros quadrados. O local ganhou espaço no hall com armários para guardar os pertences dos alunos, um salão de estudo individual com 21 cabines, um espaço de processos técnicos, um almoxarifado e um miniauditório com espaço para 30 pessoas.

As reformas foram iniciadas em 2018 e são fruto do empenho dos bibliotecários Andrelino da Silva e Tiago José junto à Direção do CCTS, na pessoa do professor Manuel Gordón, que empreendeu esforços para garantir que a ampliação acontecesse. A biblioteca aproveitou o momento de comemoração do nono aniversário do Câmpus para inaugurar sua ampliação. Junto com a inauguração aconteceram as exposições do artista plástico Ronaldo Ferreira, da cidade de Cacimba de Dentro-PB, e do projeto Flores do Câmpus VIII, composto por fotografias de flores existentes no CCTS feitas pelo bibliotecário Andrelino da Silva (Lino Sapo), pelo auxiliar de biblioteca João Maria Andrade e pela professora de Odontologia, Amanda do Ó.

Também houve uma inovadora exposição de epígrafes, frases de efeitos, muitas delas motivacionais, retiradas dos Trabalhos de Conclusão de Curso (TCCs) entregues pelos alunos do Centro durante os nove anos de existência do Câmpus e que têm a função, nessa exposição, de motivar os alunos em sua jornada através de uma mensagem deixada por quem já passou por esses momentos. Junto às exposições também foi inaugurada a árvore do conhecimento, criação do diretor do Câmpus, Manuel Gordón, pintada no hall da biblioteca e na qual os alunos novatos contribuíram com a obra colocando as marcas de suas mãos em tinta nas pontas dos galhos, simbolizando os frutos.

No mesmo dia a biblioteca também inaugurou sua “Cordelteca”, que homenageia a primeira mulher a escrever um Cordel, a paraibana de João Pessoa, Maria das Neves Batista Pimentel (Maria das Neves), que utilizava o codinome de Altino Alagoano. A biblioteca recebeu e expôs o fole que pertenceu a Cabralzinho do Fole de Oito Baixos, da cidade de Barra de Santa Rosa, artista popular muito conhecido na região e que tocou seu fole até os 91 anos, sendo homenageado, no ano de 2018, na cidade de Araruna, no 2º Encontro de Sanfoneiros e Tocadores de Ffole de Oito Baixos da Paraíba, realizado pela Pró-Reitoria de Cultura (PROCULT) da UEPB.

A Biblioteca do Câmpus VIII, através de sua equipe técnica, vem buscando tornar o espaço um lugar mais atrativo para seus usuários, fornecendo diversas opções de contato com o mundo científico-cultural. Nas palavras do bibliotecário Tiago José, “todo trabalho realizado pela equipe do Câmpus VIII visa contemplar não apenas o público acadêmico, com um trabalho técnico, mas também com um trabalho social e cultural, de forma a abranger toda comunidade, tornando não apenas a biblioteca, mas o Câmpus VIII, um ambiente mais acolhedor e difusor do conhecimento”.

Para o bibliotecário Andrelino da Silva, “ampliar nossa forma de acessibilidade ao conhecimento, seja ela por qual suporte for, ajuda a melhorar o desempenho dos nossos alunos, ao mesmo tempo que fomentamos o desenvolvimento artístico-cultural, tanto do Câmpus como da comunidade externa envolvida. Ainda temos muito que inovar, mas já estamos no caminho certo”.

Colaboração de texto e fotos: Andrelino Silva (Bibliotecário CCTS)

O post Biblioteca Setorial do Centro de Ciências, Tecnologia e Saúde da UEPB inaugura nova estrutura apareceu primeiro em UEPB.

[post_excerpt] =>

A Biblioteca Severino Perillo de Oliveira, localizada no Câmpus VIII da Universidade Estadual da Paraíba (UEPB), na cidade de Araruna, inaugurou, no último dia 25 de setembro, sua nova estrutura que conta com mais cinco dependências. A biblioteca passou de uma área de 259,23 metros quadrados para 390,95 metros quadrados. O local ganhou espaço no Leia Mais...

O post Biblioteca Setorial do Centro de Ciências, Tecnologia e Saúde da UEPB inaugura nova estrutura apareceu primeiro em UEPB.

[post_date_gmt] => 2019-10-01 12:17:23 [post_date] => 2019-10-01 12:17:23 [post_modified_gmt] => 2019-10-01 12:17:23 [post_modified] => 2019-10-01 12:17:23 [post_status] => publish [comment_status] => closed [ping_status] => closed [guid] => http://www.uepb.edu.br/?p=51749 [meta] => Array ( [enclosure] => Array ( [0] => ) [syndication_source] => CCTS – UEPB [syndication_source_uri] => http://www.uepb.edu.br [syndication_source_id] => http://www.uepb.edu.br/category/centros/ccts/feed/ [rss:comments] => http://www.uepb.edu.br/biblioteca-setorial-do-centro-de-ciencias-tecnologia-e-saude-da-uepb-inaugura-nova-estrutura/#respond [wfw:commentRSS] => http://www.uepb.edu.br/biblioteca-setorial-do-centro-de-ciencias-tecnologia-e-saude-da-uepb-inaugura-nova-estrutura/feed/ [syndication_feed] => http://www.uepb.edu.br/category/centros/ccts/feed/ [syndication_feed_id] => 3 [syndication_permalink] => http://www.uepb.edu.br/biblioteca-setorial-do-centro-de-ciencias-tecnologia-e-saude-da-uepb-inaugura-nova-estrutura/ [syndication_item_hash] => Array ( [0] => 13098074c834e1b5fc8e6406860d70af [1] => ef7e0cb7c6d61db1db8184482d1c3fb5 ) ) [post_type] => post [post_author] => 25 [tax_input] => Array ( [category] => Array ( [0] => 7 [1] => 2 ) [post_tag] => Array ( ) [post_format] => Array ( ) ) [post_name] => biblioteca-setorial-do-centro-de-ciencias-tecnologia-e-saude-da-uepb-inaugura-nova-estrutura )

Decide filter: Returning post, everything seems orderly :Biblioteca Setorial do Centro de Ciências, Tecnologia e Saúde da UEPB inaugura nova estrutura

Array ( [post_title] => Biblioteca Setorial do Centro de Ciências, Tecnologia e Saúde da UEPB inaugura nova estrutura [post_content] =>

A Biblioteca Severino Perillo de Oliveira, localizada no Câmpus VIII da Universidade Estadual da Paraíba (UEPB), na cidade de Araruna, inaugurou, no último dia 25 de setembro, sua nova estrutura que conta com mais cinco dependências. A biblioteca passou de uma área de 259,23 metros quadrados para 390,95 metros quadrados. O local ganhou espaço no hall com armários para guardar os pertences dos alunos, um salão de estudo individual com 21 cabines, um espaço de processos técnicos, um almoxarifado e um miniauditório com espaço para 30 pessoas.

As reformas foram iniciadas em 2018 e são fruto do empenho dos bibliotecários Andrelino da Silva e Tiago José junto à Direção do CCTS, na pessoa do professor Manuel Gordón, que empreendeu esforços para garantir que a ampliação acontecesse. A biblioteca aproveitou o momento de comemoração do nono aniversário do Câmpus para inaugurar sua ampliação. Junto com a inauguração aconteceram as exposições do artista plástico Ronaldo Ferreira, da cidade de Cacimba de Dentro-PB, e do projeto Flores do Câmpus VIII, composto por fotografias de flores existentes no CCTS feitas pelo bibliotecário Andrelino da Silva (Lino Sapo), pelo auxiliar de biblioteca João Maria Andrade e pela professora de Odontologia, Amanda do Ó.

Também houve uma inovadora exposição de epígrafes, frases de efeitos, muitas delas motivacionais, retiradas dos Trabalhos de Conclusão de Curso (TCCs) entregues pelos alunos do Centro durante os nove anos de existência do Câmpus e que têm a função, nessa exposição, de motivar os alunos em sua jornada através de uma mensagem deixada por quem já passou por esses momentos. Junto às exposições também foi inaugurada a árvore do conhecimento, criação do diretor do Câmpus, Manuel Gordón, pintada no hall da biblioteca e na qual os alunos novatos contribuíram com a obra colocando as marcas de suas mãos em tinta nas pontas dos galhos, simbolizando os frutos.

No mesmo dia a biblioteca também inaugurou sua “Cordelteca”, que homenageia a primeira mulher a escrever um Cordel, a paraibana de João Pessoa, Maria das Neves Batista Pimentel (Maria das Neves), que utilizava o codinome de Altino Alagoano. A biblioteca recebeu e expôs o fole que pertenceu a Cabralzinho do Fole de Oito Baixos, da cidade de Barra de Santa Rosa, artista popular muito conhecido na região e que tocou seu fole até os 91 anos, sendo homenageado, no ano de 2018, na cidade de Araruna, no 2º Encontro de Sanfoneiros e Tocadores de Ffole de Oito Baixos da Paraíba, realizado pela Pró-Reitoria de Cultura (PROCULT) da UEPB.

A Biblioteca do Câmpus VIII, através de sua equipe técnica, vem buscando tornar o espaço um lugar mais atrativo para seus usuários, fornecendo diversas opções de contato com o mundo científico-cultural. Nas palavras do bibliotecário Tiago José, “todo trabalho realizado pela equipe do Câmpus VIII visa contemplar não apenas o público acadêmico, com um trabalho técnico, mas também com um trabalho social e cultural, de forma a abranger toda comunidade, tornando não apenas a biblioteca, mas o Câmpus VIII, um ambiente mais acolhedor e difusor do conhecimento”.

Para o bibliotecário Andrelino da Silva, “ampliar nossa forma de acessibilidade ao conhecimento, seja ela por qual suporte for, ajuda a melhorar o desempenho dos nossos alunos, ao mesmo tempo que fomentamos o desenvolvimento artístico-cultural, tanto do Câmpus como da comunidade externa envolvida. Ainda temos muito que inovar, mas já estamos no caminho certo”.

Colaboração de texto e fotos: Andrelino Silva (Bibliotecário CCTS)

O post Biblioteca Setorial do Centro de Ciências, Tecnologia e Saúde da UEPB inaugura nova estrutura apareceu primeiro em UEPB.

[post_excerpt] =>

A Biblioteca Severino Perillo de Oliveira, localizada no Câmpus VIII da Universidade Estadual da Paraíba (UEPB), na cidade de Araruna, inaugurou, no último dia 25 de setembro, sua nova estrutura que conta com mais cinco dependências. A biblioteca passou de uma área de 259,23 metros quadrados para 390,95 metros quadrados. O local ganhou espaço no Leia Mais...

O post Biblioteca Setorial do Centro de Ciências, Tecnologia e Saúde da UEPB inaugura nova estrutura apareceu primeiro em UEPB.

[post_date_gmt] => 2019-10-01 12:17:23 [post_date] => 2019-10-01 12:17:23 [post_modified_gmt] => 2019-10-01 12:17:23 [post_modified] => 2019-10-01 12:17:23 [post_status] => publish [comment_status] => closed [ping_status] => closed [guid] => http://www.uepb.edu.br/?p=51749 [meta] => Array ( [enclosure] => Array ( [0] => ) [syndication_source] => CCTS – UEPB [syndication_source_uri] => http://www.uepb.edu.br [syndication_source_id] => http://www.uepb.edu.br/category/centros/ccts/feed/ [rss:comments] => http://www.uepb.edu.br/biblioteca-setorial-do-centro-de-ciencias-tecnologia-e-saude-da-uepb-inaugura-nova-estrutura/#respond [wfw:commentRSS] => http://www.uepb.edu.br/biblioteca-setorial-do-centro-de-ciencias-tecnologia-e-saude-da-uepb-inaugura-nova-estrutura/feed/ [syndication_feed] => http://www.uepb.edu.br/category/centros/ccts/feed/ [syndication_feed_id] => 3 [syndication_permalink] => http://www.uepb.edu.br/biblioteca-setorial-do-centro-de-ciencias-tecnologia-e-saude-da-uepb-inaugura-nova-estrutura/ [syndication_item_hash] => Array ( [0] => 13098074c834e1b5fc8e6406860d70af [1] => ef7e0cb7c6d61db1db8184482d1c3fb5 ) ) [post_type] => post [post_author] => 25 [tax_input] => Array ( [category] => Array ( [0] => 7 [1] => 2 ) [post_tag] => Array ( ) [post_format] => Array ( ) ) [post_name] => biblioteca-setorial-do-centro-de-ciencias-tecnologia-e-saude-da-uepb-inaugura-nova-estrutura )

FAF deciding on filters on post to be syndicated:

3° Encontro de Sanfoneiros e Tocadores de Fole de Oito Baixos tem início no Câmpus de Araruna

Array ( [post_title] => 3° Encontro de Sanfoneiros e Tocadores de Fole de Oito Baixos tem início no Câmpus de Araruna [post_content] =>

Começou na manhã de quinta-feira (25), em Araruna, a terceira edição do Encontro de Sanfoneiros e Tocadores de Fole de Oito Baixos da Universidade Estadual da Paraíba (UEPB). A iniciativa, realizada pela Pró-Reitoria de Cultura (Procult) da Instituição, estendeu-se por todo o dia, sendo integrada ao aniversário de nove anos do Câmpus VIII e à Feira Científica e Cultural (FECC) que compunha a programação.

O Encontro foi sediado no auditório do CCTS. À mesa de abertura estavam o pró-reitor de Cultura, José Cristóvão de Andrade; os músicos Luizinho e João Calixto; o escritor Kydelmir Dantas; os pesquisadores Xico Nóbrega e Jocelino Tomaz; o coordenador local do evento em Araruna, Lino Sapo; e o diretor do Centro de Ciências, Tecnologia e Saúde (CCTS), professor Manuel Antonio Gordón-Núñes.

As apresentações artísticas ficaram por conta dos sanfoneiros inscritos no Encontro, além dos músicos João Batista, Erivan Ferreira, Luizinho Calixto, João Calixto, Sabrina Gomes e Bruno Geovanni, e do Grupo de Tradições Populares Acauã da Serra. Mais tarde, todos eles participaram das exibições propostas pela Feira Científica e Cultural.

Por ocasião de seu centenário, Jackson do Pandeiro era o farol a nortear as atividades, sem dúvida o nome mais lembrado tanto no Encontro, como na FECC. O artista de Alagoa Grande foi figura marcante em todas as práticas: a imagem de Zé Jack, que estampou desde o folder da Feira, passando por exposições, livros e cordéis trazendo um pouco da sua obra, ecoou no auditório durante as palestras e, teve, por fim, seu ápice, quando músicas dele foram cantadas e dançarinos, ao som do Rei do Ritmo, bailaram.

O pró-reitor de Cultura da UEPB endossou a satisfação por mais uma vez o Encontro ser iniciado em Araruna. Em sua fala, Andrade ressaltou, ainda, o legado deixado pelo sanfoneiro Abraão Basílio Bezerra, o Cabralzim. O artista faleceu em novembro do ano passado, aos 93 anos. Poucos meses antes, recebeu uma homenagem do Encontro. Cabralzim foi lembrado, igualmente, por Lino Sapo. “Hoje teremos a inauguração de um miniauditório que leva o nome dele. O fole de oito baixos que ele usava foi cedido pela família à UEPB e agora faz parte do acervo da Instituição. Cabralzim esteve no Encontro desde o começo e ficou na memória como um retrato da arte da nossa gente”, explicou.

O agricultor aposentado Ednaldo Correa, de 69 anos, morador de Barra de Santa Rosa era um dos presentes ao Encontro. Ele detalhou que começou a tocar aos 13 anos. “Mas ainda não aprendi totalmente”, pontuou sorrindo. Fã de Jorge de Altinho e Flávio José, ele asseverou que ainda se apresenta com sua sanfona, especialmente no São João. “Nasci no meio da música, fui criado pelo meu avô, ele tocava fole de oito baixos. A primeira sanfona só pude comprar aos 20 anos, porque era um valor alto. Precisei dividir em várias prestações. Hoje tenho um neto e um filho que também tocam. Para mim é assim: em primeiro lugar está Deus, depois meus filhos e em terceiro lugar a sanfona”, explanou.

A comunidade dentro da Universidade

O Câmpus VIII estava cheio de gente. Muitas cores, muita algazarra. Eram crianças e adolescentes de todas as idades. “Nossa ideia era que o aniversário do Câmpus não ficasse restrito à Universidade. Queríamos celebrá-lo de portas abertas. Não faz sentido comemorarmos sozinhos. A comunidade tem que usufruir de tudo que a Universidade possui. Muitas vezes, ela nem conhece o que dispomos aqui. Então nosso objetivo este ano foi reunir esse público e fazer parcerias com diversas prefeituras. Temos a Prefeitura de Barra de Santa Rosa, Damião, Tacima, Passa e Fica (RN), Cacimba de Dentro e Araruna. A Feira também é uma espécie de vitrine para que essas prefeituras mostrem o que estão desenvolvendo”, disse.

Para Manuel Antonio, as pessoas devem se sentir atraídas pelo Câmpus. “Queremos que tenham vontade de participar do que fazemos, que conheçam o Câmpus e quem sabe, futuramente, sejam os nossos alunos, sejam os nossos funcionários, sejam os nossos professores. O Encontro se juntou a essa festa”, concluiu.

Professor de Engenharia Civil do Campus VIII, Lauandes Marques explicou que todas as escolas municipais de Araruna foram convidadas. “Tivemos uma média de seis escolas, o que significou aproximadamente 300 alunos conosco”, assinalou. Dentre os projetos de extensão da UEPB que compuseram a Feira Científica e Cultural, ele apontou o Laboratório Itinerante (LABIT), a Empresa Júnior de Engenharia Civil, denominada “Pilares” e o “Lixo do Bom”, que versa sobre a implantação da coleta seletiva em Araruna. “Todas as crianças que estiveram aqui hoje conheceram nossos três laboratórios de Odontologia e os outros seis que contemplam os cursos de Engenharia e Física”, acrescentou.

Além da apresentação dos sanfoneiros, o aniversário do Campus VIII contou com dezenas de exibições culturais. Lançamentos de livros, instalação de cordelteca, oficinas de dança e declamações, entre outros, deram a tônica do evento. Raí Bezerra, Isabela Alcantâra, Boi de Reis e Jaraguá com Grupo Iterliga, Escola de Capoeira Filhos de Araruna, Projeto Centenário Jackson do Pandeiro – Escola Sagrada Família, Projeto Viver de Tacima, os artistas mirins Bia Cortez, Clara Bezerra, João Pedro, Samuel Levi e Reginho Tatu, bem como a Banda Filarmônica de Araruna foram alguns dos destaques da programação.

Texto: Oziella Inocêncio
Fotos: Hugo Tabosa e Uirá Agra

O post 3° Encontro de Sanfoneiros e Tocadores de Fole de Oito Baixos tem início no Câmpus de Araruna apareceu primeiro em UEPB.

[post_excerpt] =>

Começou na manhã de quinta-feira (25), em Araruna, a terceira edição do Encontro de Sanfoneiros e Tocadores de Fole de Oito Baixos da Universidade Estadual da Paraíba (UEPB). A iniciativa, realizada pela Pró-Reitoria de Cultura (Procult) da Instituição, estendeu-se por todo o dia, sendo integrada ao aniversário de nove anos do Câmpus VIII e à Leia Mais...

O post 3° Encontro de Sanfoneiros e Tocadores de Fole de Oito Baixos tem início no Câmpus de Araruna apareceu primeiro em UEPB.

[post_date_gmt] => 2019-09-27 13:24:31 [post_date] => 2019-09-27 13:24:31 [post_modified_gmt] => 2019-09-27 13:24:31 [post_modified] => 2019-09-27 13:24:31 [post_status] => publish [comment_status] => closed [ping_status] => closed [guid] => http://www.uepb.edu.br/?p=51612 [meta] => Array ( [enclosure] => Array ( [0] => ) [syndication_source] => CCTS – UEPB [syndication_source_uri] => http://www.uepb.edu.br [syndication_source_id] => http://www.uepb.edu.br/category/centros/ccts/feed/ [rss:comments] => http://www.uepb.edu.br/3-encontro-de-sanfoneiros-e-tocadores-de-fole-de-oito-baixos-tem-inicio-no-campus-de-araruna/#respond [wfw:commentRSS] => http://www.uepb.edu.br/3-encontro-de-sanfoneiros-e-tocadores-de-fole-de-oito-baixos-tem-inicio-no-campus-de-araruna/feed/ [syndication_feed] => http://www.uepb.edu.br/category/centros/ccts/feed/ [syndication_feed_id] => 3 [syndication_permalink] => http://www.uepb.edu.br/3-encontro-de-sanfoneiros-e-tocadores-de-fole-de-oito-baixos-tem-inicio-no-campus-de-araruna/ [syndication_item_hash] => Array ( [0] => f2f23c123746e86347059414ec4841a9 [1] => b2795df71bf94deccaf17b9ca3c8641b ) ) [post_type] => post [post_author] => 25 [tax_input] => Array ( [category] => Array ( [0] => 7 [1] => 2 ) [post_tag] => Array ( ) [post_format] => Array ( ) ) [post_name] => 3-encontro-de-sanfoneiros-e-tocadores-de-fole-de-oito-baixos-tem-inicio-no-campus-de-araruna )

Decide filter: Returning post, everything seems orderly :3° Encontro de Sanfoneiros e Tocadores de Fole de Oito Baixos tem início no Câmpus de Araruna

Array ( [post_title] => 3° Encontro de Sanfoneiros e Tocadores de Fole de Oito Baixos tem início no Câmpus de Araruna [post_content] =>

Começou na manhã de quinta-feira (25), em Araruna, a terceira edição do Encontro de Sanfoneiros e Tocadores de Fole de Oito Baixos da Universidade Estadual da Paraíba (UEPB). A iniciativa, realizada pela Pró-Reitoria de Cultura (Procult) da Instituição, estendeu-se por todo o dia, sendo integrada ao aniversário de nove anos do Câmpus VIII e à Feira Científica e Cultural (FECC) que compunha a programação.

O Encontro foi sediado no auditório do CCTS. À mesa de abertura estavam o pró-reitor de Cultura, José Cristóvão de Andrade; os músicos Luizinho e João Calixto; o escritor Kydelmir Dantas; os pesquisadores Xico Nóbrega e Jocelino Tomaz; o coordenador local do evento em Araruna, Lino Sapo; e o diretor do Centro de Ciências, Tecnologia e Saúde (CCTS), professor Manuel Antonio Gordón-Núñes.

As apresentações artísticas ficaram por conta dos sanfoneiros inscritos no Encontro, além dos músicos João Batista, Erivan Ferreira, Luizinho Calixto, João Calixto, Sabrina Gomes e Bruno Geovanni, e do Grupo de Tradições Populares Acauã da Serra. Mais tarde, todos eles participaram das exibições propostas pela Feira Científica e Cultural.

Por ocasião de seu centenário, Jackson do Pandeiro era o farol a nortear as atividades, sem dúvida o nome mais lembrado tanto no Encontro, como na FECC. O artista de Alagoa Grande foi figura marcante em todas as práticas: a imagem de Zé Jack, que estampou desde o folder da Feira, passando por exposições, livros e cordéis trazendo um pouco da sua obra, ecoou no auditório durante as palestras e, teve, por fim, seu ápice, quando músicas dele foram cantadas e dançarinos, ao som do Rei do Ritmo, bailaram.

O pró-reitor de Cultura da UEPB endossou a satisfação por mais uma vez o Encontro ser iniciado em Araruna. Em sua fala, Andrade ressaltou, ainda, o legado deixado pelo sanfoneiro Abraão Basílio Bezerra, o Cabralzim. O artista faleceu em novembro do ano passado, aos 93 anos. Poucos meses antes, recebeu uma homenagem do Encontro. Cabralzim foi lembrado, igualmente, por Lino Sapo. “Hoje teremos a inauguração de um miniauditório que leva o nome dele. O fole de oito baixos que ele usava foi cedido pela família à UEPB e agora faz parte do acervo da Instituição. Cabralzim esteve no Encontro desde o começo e ficou na memória como um retrato da arte da nossa gente”, explicou.

O agricultor aposentado Ednaldo Correa, de 69 anos, morador de Barra de Santa Rosa era um dos presentes ao Encontro. Ele detalhou que começou a tocar aos 13 anos. “Mas ainda não aprendi totalmente”, pontuou sorrindo. Fã de Jorge de Altinho e Flávio José, ele asseverou que ainda se apresenta com sua sanfona, especialmente no São João. “Nasci no meio da música, fui criado pelo meu avô, ele tocava fole de oito baixos. A primeira sanfona só pude comprar aos 20 anos, porque era um valor alto. Precisei dividir em várias prestações. Hoje tenho um neto e um filho que também tocam. Para mim é assim: em primeiro lugar está Deus, depois meus filhos e em terceiro lugar a sanfona”, explanou.

A comunidade dentro da Universidade

O Câmpus VIII estava cheio de gente. Muitas cores, muita algazarra. Eram crianças e adolescentes de todas as idades. “Nossa ideia era que o aniversário do Câmpus não ficasse restrito à Universidade. Queríamos celebrá-lo de portas abertas. Não faz sentido comemorarmos sozinhos. A comunidade tem que usufruir de tudo que a Universidade possui. Muitas vezes, ela nem conhece o que dispomos aqui. Então nosso objetivo este ano foi reunir esse público e fazer parcerias com diversas prefeituras. Temos a Prefeitura de Barra de Santa Rosa, Damião, Tacima, Passa e Fica (RN), Cacimba de Dentro e Araruna. A Feira também é uma espécie de vitrine para que essas prefeituras mostrem o que estão desenvolvendo”, disse.

Para Manuel Antonio, as pessoas devem se sentir atraídas pelo Câmpus. “Queremos que tenham vontade de participar do que fazemos, que conheçam o Câmpus e quem sabe, futuramente, sejam os nossos alunos, sejam os nossos funcionários, sejam os nossos professores. O Encontro se juntou a essa festa”, concluiu.

Professor de Engenharia Civil do Campus VIII, Lauandes Marques explicou que todas as escolas municipais de Araruna foram convidadas. “Tivemos uma média de seis escolas, o que significou aproximadamente 300 alunos conosco”, assinalou. Dentre os projetos de extensão da UEPB que compuseram a Feira Científica e Cultural, ele apontou o Laboratório Itinerante (LABIT), a Empresa Júnior de Engenharia Civil, denominada “Pilares” e o “Lixo do Bom”, que versa sobre a implantação da coleta seletiva em Araruna. “Todas as crianças que estiveram aqui hoje conheceram nossos três laboratórios de Odontologia e os outros seis que contemplam os cursos de Engenharia e Física”, acrescentou.

Além da apresentação dos sanfoneiros, o aniversário do Campus VIII contou com dezenas de exibições culturais. Lançamentos de livros, instalação de cordelteca, oficinas de dança e declamações, entre outros, deram a tônica do evento. Raí Bezerra, Isabela Alcantâra, Boi de Reis e Jaraguá com Grupo Iterliga, Escola de Capoeira Filhos de Araruna, Projeto Centenário Jackson do Pandeiro – Escola Sagrada Família, Projeto Viver de Tacima, os artistas mirins Bia Cortez, Clara Bezerra, João Pedro, Samuel Levi e Reginho Tatu, bem como a Banda Filarmônica de Araruna foram alguns dos destaques da programação.

Texto: Oziella Inocêncio
Fotos: Hugo Tabosa e Uirá Agra

O post 3° Encontro de Sanfoneiros e Tocadores de Fole de Oito Baixos tem início no Câmpus de Araruna apareceu primeiro em UEPB.

[post_excerpt] =>

Começou na manhã de quinta-feira (25), em Araruna, a terceira edição do Encontro de Sanfoneiros e Tocadores de Fole de Oito Baixos da Universidade Estadual da Paraíba (UEPB). A iniciativa, realizada pela Pró-Reitoria de Cultura (Procult) da Instituição, estendeu-se por todo o dia, sendo integrada ao aniversário de nove anos do Câmpus VIII e à Leia Mais...

O post 3° Encontro de Sanfoneiros e Tocadores de Fole de Oito Baixos tem início no Câmpus de Araruna apareceu primeiro em UEPB.

[post_date_gmt] => 2019-09-27 13:24:31 [post_date] => 2019-09-27 13:24:31 [post_modified_gmt] => 2019-09-27 13:24:31 [post_modified] => 2019-09-27 13:24:31 [post_status] => publish [comment_status] => closed [ping_status] => closed [guid] => http://www.uepb.edu.br/?p=51612 [meta] => Array ( [enclosure] => Array ( [0] => ) [syndication_source] => CCTS – UEPB [syndication_source_uri] => http://www.uepb.edu.br [syndication_source_id] => http://www.uepb.edu.br/category/centros/ccts/feed/ [rss:comments] => http://www.uepb.edu.br/3-encontro-de-sanfoneiros-e-tocadores-de-fole-de-oito-baixos-tem-inicio-no-campus-de-araruna/#respond [wfw:commentRSS] => http://www.uepb.edu.br/3-encontro-de-sanfoneiros-e-tocadores-de-fole-de-oito-baixos-tem-inicio-no-campus-de-araruna/feed/ [syndication_feed] => http://www.uepb.edu.br/category/centros/ccts/feed/ [syndication_feed_id] => 3 [syndication_permalink] => http://www.uepb.edu.br/3-encontro-de-sanfoneiros-e-tocadores-de-fole-de-oito-baixos-tem-inicio-no-campus-de-araruna/ [syndication_item_hash] => Array ( [0] => f2f23c123746e86347059414ec4841a9 [1] => b2795df71bf94deccaf17b9ca3c8641b ) ) [post_type] => post [post_author] => 25 [tax_input] => Array ( [category] => Array ( [0] => 7 [1] => 2 ) [post_tag] => Array ( ) [post_format] => Array ( ) ) [post_name] => 3-encontro-de-sanfoneiros-e-tocadores-de-fole-de-oito-baixos-tem-inicio-no-campus-de-araruna )

FAF deciding on filters on post to be syndicated:

Curso de Odontologia do Câmpus de Araruna lança edital para Empréstimo de Instrumental Odontológico

Array ( [post_title] => Curso de Odontologia do Câmpus de Araruna lança edital para Empréstimo de Instrumental Odontológico [post_content] =>

O Curso de Odontologia do Câmpus VIII da Universidade Estadual da Paraíba (UEPB), localizado em Araruna, lançou edital para inscrição dos alunos interessados no empréstimo de instrumental odontológico na forma de comodato, ou seja, aquele que possibilita a utilização gratuita do material, contanto que este seja devolvido dentro do prazo estipulado.

As inscrições serão realizadas até o dia 18 de outubro e podem se submeter ao processo os alunos que estejam cursando a partir do 4º período do Curso de Odontologia do referido Câmpus. Os interessados devem comprovar renda familiar de até três salários mínimos e também que não mantêm qualquer vínculo empregatício formal ou informal.

O candidato deve comparecer à Secretaria de Clínicas Odontológicas do CCTS, situado na Avenida Coronel Pedro Targino, S/N, Centro de Araruna, no horário das 8h às 10h e das 14h às 16h, para apresentar o formulário de inscrição devidamente preenchido, além de cópias autenticadas de toda documentação listada no edital.

Serão selecionados prioritariamente os acadêmicos que apresentarem as menores rendas familiares per capta comprovadas e todos os documentos exigidos. A lista dos classificados será divulgada no site da UEPB, com previsão para o dia 23 de Outubro. O edital completo pode ser conferido clicando AQUI.

Texto: Tatiana Brandão

O post Curso de Odontologia do Câmpus de Araruna lança edital para Empréstimo de Instrumental Odontológico apareceu primeiro em UEPB.

[post_excerpt] =>

O Curso de Odontologia do Câmpus VIII da Universidade Estadual da Paraíba (UEPB), localizado em Araruna, lançou edital para inscrição dos alunos interessados no empréstimo de instrumental odontológico na forma de comodato, ou seja, aquele que possibilita a utilização gratuita do material, contanto que este seja devolvido dentro do prazo estipulado. As inscrições serão realizadas Leia Mais...

O post Curso de Odontologia do Câmpus de Araruna lança edital para Empréstimo de Instrumental Odontológico apareceu primeiro em UEPB.

[post_date_gmt] => 2019-09-27 13:10:31 [post_date] => 2019-09-27 13:10:31 [post_modified_gmt] => 2019-09-27 13:10:31 [post_modified] => 2019-09-27 13:10:31 [post_status] => publish [comment_status] => closed [ping_status] => closed [guid] => http://www.uepb.edu.br/?p=51610 [meta] => Array ( [enclosure] => Array ( [0] => ) [syndication_source] => CCTS – UEPB [syndication_source_uri] => http://www.uepb.edu.br [syndication_source_id] => http://www.uepb.edu.br/category/centros/ccts/feed/ [rss:comments] => http://www.uepb.edu.br/curso-de-odontologia-do-campus-de-araruna-lanca-edital-para-emprestimo-de-instrumental-odontologico-2/#respond [wfw:commentRSS] => http://www.uepb.edu.br/curso-de-odontologia-do-campus-de-araruna-lanca-edital-para-emprestimo-de-instrumental-odontologico-2/feed/ [syndication_feed] => http://www.uepb.edu.br/category/centros/ccts/feed/ [syndication_feed_id] => 3 [syndication_permalink] => http://www.uepb.edu.br/curso-de-odontologia-do-campus-de-araruna-lanca-edital-para-emprestimo-de-instrumental-odontologico-2/ [syndication_item_hash] => Array ( [0] => d564e20c493ccd78d50045dd2eb88d29 [1] => bb23ee5b296b8af6d531084612648352 ) ) [post_type] => post [post_author] => 25 [tax_input] => Array ( [category] => Array ( [0] => 7 [1] => 2 ) [post_tag] => Array ( ) [post_format] => Array ( ) ) [post_name] => curso-de-odontologia-do-campus-de-araruna-lanca-edital-para-emprestimo-de-instrumental-odontologico-2 )

Decide filter: Returning post, everything seems orderly :Curso de Odontologia do Câmpus de Araruna lança edital para Empréstimo de Instrumental Odontológico

Array ( [post_title] => Curso de Odontologia do Câmpus de Araruna lança edital para Empréstimo de Instrumental Odontológico [post_content] =>

O Curso de Odontologia do Câmpus VIII da Universidade Estadual da Paraíba (UEPB), localizado em Araruna, lançou edital para inscrição dos alunos interessados no empréstimo de instrumental odontológico na forma de comodato, ou seja, aquele que possibilita a utilização gratuita do material, contanto que este seja devolvido dentro do prazo estipulado.

As inscrições serão realizadas até o dia 18 de outubro e podem se submeter ao processo os alunos que estejam cursando a partir do 4º período do Curso de Odontologia do referido Câmpus. Os interessados devem comprovar renda familiar de até três salários mínimos e também que não mantêm qualquer vínculo empregatício formal ou informal.

O candidato deve comparecer à Secretaria de Clínicas Odontológicas do CCTS, situado na Avenida Coronel Pedro Targino, S/N, Centro de Araruna, no horário das 8h às 10h e das 14h às 16h, para apresentar o formulário de inscrição devidamente preenchido, além de cópias autenticadas de toda documentação listada no edital.

Serão selecionados prioritariamente os acadêmicos que apresentarem as menores rendas familiares per capta comprovadas e todos os documentos exigidos. A lista dos classificados será divulgada no site da UEPB, com previsão para o dia 23 de Outubro. O edital completo pode ser conferido clicando AQUI.

Texto: Tatiana Brandão

O post Curso de Odontologia do Câmpus de Araruna lança edital para Empréstimo de Instrumental Odontológico apareceu primeiro em UEPB.

[post_excerpt] =>

O Curso de Odontologia do Câmpus VIII da Universidade Estadual da Paraíba (UEPB), localizado em Araruna, lançou edital para inscrição dos alunos interessados no empréstimo de instrumental odontológico na forma de comodato, ou seja, aquele que possibilita a utilização gratuita do material, contanto que este seja devolvido dentro do prazo estipulado. As inscrições serão realizadas Leia Mais...

O post Curso de Odontologia do Câmpus de Araruna lança edital para Empréstimo de Instrumental Odontológico apareceu primeiro em UEPB.

[post_date_gmt] => 2019-09-27 13:10:31 [post_date] => 2019-09-27 13:10:31 [post_modified_gmt] => 2019-09-27 13:10:31 [post_modified] => 2019-09-27 13:10:31 [post_status] => publish [comment_status] => closed [ping_status] => closed [guid] => http://www.uepb.edu.br/?p=51610 [meta] => Array ( [enclosure] => Array ( [0] => ) [syndication_source] => CCTS – UEPB [syndication_source_uri] => http://www.uepb.edu.br [syndication_source_id] => http://www.uepb.edu.br/category/centros/ccts/feed/ [rss:comments] => http://www.uepb.edu.br/curso-de-odontologia-do-campus-de-araruna-lanca-edital-para-emprestimo-de-instrumental-odontologico-2/#respond [wfw:commentRSS] => http://www.uepb.edu.br/curso-de-odontologia-do-campus-de-araruna-lanca-edital-para-emprestimo-de-instrumental-odontologico-2/feed/ [syndication_feed] => http://www.uepb.edu.br/category/centros/ccts/feed/ [syndication_feed_id] => 3 [syndication_permalink] => http://www.uepb.edu.br/curso-de-odontologia-do-campus-de-araruna-lanca-edital-para-emprestimo-de-instrumental-odontologico-2/ [syndication_item_hash] => Array ( [0] => d564e20c493ccd78d50045dd2eb88d29 [1] => bb23ee5b296b8af6d531084612648352 ) ) [post_type] => post [post_author] => 25 [tax_input] => Array ( [category] => Array ( [0] => 7 [1] => 2 ) [post_tag] => Array ( ) [post_format] => Array ( ) ) [post_name] => curso-de-odontologia-do-campus-de-araruna-lanca-edital-para-emprestimo-de-instrumental-odontologico-2 )

FAF deciding on filters on post to be syndicated:

Câmpus VIII da Universidade Estadual da Paraíba celebra nove anos de fundação com inaugurações

Array ( [post_title] => Câmpus VIII da Universidade Estadual da Paraíba celebra nove anos de fundação com inaugurações [post_content] =>

Há nove anos, a Universidade Estadual da Paraíba (UEPB) ampliava sua abrangência e chegava ao Curimataú paraibano, consolidando, assim, sua presença em todas as regiões do Estado. O Centro de Ciências, Tecnologia e Saúde (CCTS), instalado na cidade de Araruna, mudou a realidade da região. A chegada do Câmpus VIII à localidade atraiu novos investimentos, impulsionou o comércio, modificou costumes e alavancou toda uma cadeia econômica em torno da cidade. A UEPB passou a disseminar conhecimentos e a formar novos profissionais na região, sem a necessidade deles se deslocarem para Campina Grande ou outros centros em busca do curso superior, novas perspectivas e novos horizontes.

Nesse período, mais de 350 profissionais já foram formados pelo CCTS e mais de 600 estudantes estão matriculados seguindo na trilha do conhecimento para se tornarem engenheiros, odontólogos ou físicos. Os projetos de extensão desenvolvidos pelos estudantes, com orientação dos professores, levam serviços gratuitos e melhora a qualidade de vida da população. No total, 35 projetos extensionistas estão em pleno andamento, beneficiando não só os moradores de Araruna, mas também das cidades circunvizinhas.

Como não podia ser diferente, as comemorações alusivas aos nove anos de fundação do Câmpus VIII foram realizadas em grande estilo, com direito a banda filarmônica, bolo, encontro de sanfoneiros, apresentação do Acauã da Serra, Feira Científica, homenagem ao centenário de Jackson do Pandeiro, exposição fotográfica e inaugurações. O ato solene de aniversário contou com a presença do reitor Rangel Junior; do diretor do Câmpus, professor Manuel Antônio Gordón Núñez; do diretor adjunto do CCTS, professor Raimundo Leidimar Bezerra; do prefeito de Araruna, Vital Costa; professores, estudantes e técnicos do CCTS.

O diretor do Centro, professor Manuel Antônio Gordón Núñez, ressaltou que apesar das dificuldades enfrentadas pelo Brasil e das ameaças às instituições públicas, o Câmpus VIII tem obtido importantes conquistas, o que é motivo para comemorar. Ele registrou o apoio da Administração Central e a parceria com a Prefeitura de Araruna como fundamentais para a realização de obras que, antes, eram um sonho. “Completamos nove anos de muito esforço, muita luta e trabalho intenso. Essa comemoração é um marco, pois mostra o papel da Universidade aberta para a comunidade”, destacou, acrescentando que o Câmpus VIII foi um divisor de águas na história de Araruna, mudando a realidade da região.

O reitor Rangel Junior parabenizou a gestão do CCTS pela luta, criatividade, ideias inovadoras e tenacidade para potencializar as ações e superar as adversidades. Diante da ausência de alguns gestores do Curso de Odontologia do Câmpus VIII, o reitor lamentou que as divergências políticas se sobreponham aos interesses institucionais e registrou que todos precisam saber exercer a tolerância, ter grandeza para conviver com o diferente e realizar gestos simples, mas significantes.

Rangel ressaltou que a presença da UEPB em Araruna ajudou a região a se desenvolver, o que demostra a importância dos investimentos feitos na Instituição. Ele disse que o Câmpus VIII sempre vai simbolizar o que é mais complexo em termos de esforço administrativo para fazer com que as coisas aconteçam na UEPB. Ele lembrou ainda que, mesmo sem as condições orçamentárias ideais para garantir a execução de obras grandes já planejadas, a Administração Central, com muita luta, estruturou as clínicas de Odontologia e concluiu o prédio do Curso de Engenharia Civil. “Temos aqui, em Araruna, dois dos cursos mais caros da Universidade. Eles são caros, porque eles têm uma importância muito grande pela necessidade existente na sociedade. O benefício é social. É um investimento para o povo da região”, destacou.

Como segundo diretor do Câmpus VIII, o professor Raimundo Leidimar disse que a chegada da UEPB foi um marco na história do Curimataú, devido aos benefícios levados para toda a comunidade, através dos projetos de Odontologia e Engenharia Civil. Com autoridade de quem acompanhou toda evolução do Câmpus, o professor disse que o CCTS supriu uma lacuna educacional da região. “A UEPB está de parabéns por ter instalado um Câmpus em uma região muito carente. Depois de nove anos, já vemos os frutos dessa iniciativa”, ressaltou.

Primeira gestora do Câmpus, a professora Alessandra Brandão enfatizou que a Universidade mudou o entorno de Araruna. A cidade, segundo ela, teve que se organizar para oferecer serviços que antes não existiam. Para ela, o CCTS deu grande contribuição ao Curimataú paraibano, não só na formação profissional, mas no fortalecimento cultural, social e econômico. “Não é possível imaginar mais Araruna e a região sem o Câmpus VIII”, analisou.

Presente na solenidade, o prefeito de Araruna, Vital Costa, disse que a UEPB tem colaborado com o município de Araruna, com parcerias que já geraram frutos proveitosos. “A Universidade tem nos ajudado nas nossas unidades de saúde, com os alunos de Odontologia e Engenharia Civil. Isso tem sido um resultado extremamente positivo para Araruna”, frisou. Sabendo da importância da Universidade para o desenvolvimento da cidade, ele garantiu que as parcerias vão continuar.

Inaugurações

Como parte das celebrações de aniversário, o Câmpus VIII ganhou novos equipamentos que ajudarão os estudantes no desenvolvimento de suas atividades acadêmicas, projetos e programas de extensão. Foi entregue ao CCTS o novo setor da Biblioteca Setorial, que foi totalmente reformado e passou a ter um mini auditório e sala de leitura. O descerramento da placa inaugural e o desenlace da fita foi feito pelo reitor Rangel Junior, pelos diretores do Câmpus e pelo prefeito de Araruna. O ato foi prestigiado pelo pró-reitor adjunto de Graduação, Altamir Souto, e pelo pró-reitor de Cultura, José Cristóvão de Andrade.

Na entrada da Biblioteca foi pintada uma “árvore do saber”, que simboliza o marco da inauguração. A obra idealizada e pintada pelo diretor significa todo o conhecimento que brota no Câmpus e as sementes que já deram frutos. Os diretores do Câmpus VIII e o reitor Rangel Junior foram os primeiros a deixarem as marcas de suas mãos impressas na parede colorida. As digitais de todos os 45 alunos envolvidos da Mostra Científica também ficaram para a posteridade na “árvore do saber”.

Em seguida os professores, estudantes, técnicos e visitantes conheceram as novas dependências da Biblioteca e a exposição do artista plástico de Cacimba de Dentro, Ronaldo Ferreira. Depois conheceram os outros equipamentos do Curso de Odontologia, que ganhou o novo Laboratório de Histopatologia, novas estruturas do Laboratório de Prótese Dentária e a Central de Esterilização II. As obras foram realizadas com recursos próprios da UEPB e por funcionários da Pró-Reitoria de Infraestrutura (PROINFRA).

O marco da 4ª Feira Científica

A 4ª Feira Científica e Cultural do Câmpus de Araruna foi um marco no 9º aniversário do CCTS. O evento, realizado ao longo de todo o dia, superou as expectativas. Mais de 1.500 pessoas passaram pela Feira e visitaram as tendas. Em sua 4ª edição, a Feira prestou homenagens ao centenário de Jackson do Pandeiro, com exposição de várias obras do “Rei do Ritmo”. O evento também contou com a presença de diversos estandes de prefeituras do Curimataú paraibano, que levaram exposição de artesanatos e apresentações culturais para o espaço.

No total, foram montadas 11 tendas abrigando projetos de extensão desenvolvidos pelos estudantes nas três áreas do conhecimento existentes no Centro, além das exposições das prefeituras de Araruna, Tacima, Riachão, Dona Inês, Solidade, Damião, Barra de Santa Rosa e Passa e Fica (RN). Uma das tendas abrigou o projeto “Meninas na Física e na Engenharia”, que há pouco menos de um ano realiza uma série de atividades voltadas a incentivar alunas dos ensinos fundamental e médio a se interessarem por carreiras científicas.

No curso de Engenharia Civil, o destaque foi a tenda do projeto “Pilares”. Trata-se de uma empresa júnior que tem ajudado a revolucionar a construção civil na região. O representante da empresa, o estudante Caio Sérgio Alves, do 8º período, revelou que o projeto visa aplicar na prática os conhecimentos do curso. Funcionando no CCTS, a empresa reúne equipamentos de um escritório da área, atuando de forma concreta na elaboração de projetos de engenharia, com serviços orçamentários e arquitetônicos. No momento, 15 alunos integram o projeto.

O cuidado com o meio ambiente foi representado pela tenda “Lixo Bom”, também realizado por estudantes de Engenharia Civil. O projeto, conforme explicou o professor Igor Sousa, tem o objetivo de modificar todo o manejo dos resíduos sólidos de Araruna através da coleta seletiva. Do curso de Odontologia, o destaque foi a tenda do projeto “Sorrindo sem cárie”. A estudante Maria Isabel Araújo, do 4º período, disse que o projeto mostra às crianças, de maneira divertida, utilizando música e teatro, quais os procedimentos voltados para a saúde bucal. O trabalho é realizado nas creches da região e, no momento, cinco estudantes estão envolvidos na iniciativa.

O Câmpus de Araruna “Professora Maria da Penha” foi inaugurado no dia 20 de setembro de 2010 e, atualmente, abriga os cursos de Bacharelado em Engenharia Civil, Licenciatura em Física e Bacharelado em Odontologia. Conta com mais de 600 alunos matriculados, 42 técnicos administrativos e 73 docentes em atividade no Centro de Ciências, Tecnologia e Saúde.

Texto: Severino Lopes
Fotos: Paizinha Lemos

O post Câmpus VIII da Universidade Estadual da Paraíba celebra nove anos de fundação com inaugurações apareceu primeiro em UEPB.

[post_excerpt] =>

Há nove anos, a Universidade Estadual da Paraíba (UEPB) ampliava sua abrangência e chegava ao Curimataú paraibano, consolidando, assim, sua presença em todas as regiões do Estado. O Centro de Ciências, Tecnologia e Saúde (CCTS), instalado na cidade de Araruna, mudou a realidade da região. A chegada do Câmpus VIII à localidade atraiu novos investimentos, Leia Mais...

O post Câmpus VIII da Universidade Estadual da Paraíba celebra nove anos de fundação com inaugurações apareceu primeiro em UEPB.

[post_date_gmt] => 2019-09-27 11:38:16 [post_date] => 2019-09-27 11:38:16 [post_modified_gmt] => 2019-09-27 11:38:16 [post_modified] => 2019-09-27 11:38:16 [post_status] => publish [comment_status] => closed [ping_status] => closed [guid] => http://www.uepb.edu.br/?p=51555 [meta] => Array ( [enclosure] => Array ( [0] => ) [syndication_source] => CCTS – UEPB [syndication_source_uri] => http://www.uepb.edu.br [syndication_source_id] => http://www.uepb.edu.br/category/centros/ccts/feed/ [rss:comments] => http://www.uepb.edu.br/campus-viii-da-universidade-estadual-da-paraiba-celebra-nove-anos-de-fundacao-com-inauguracoes/#respond [wfw:commentRSS] => http://www.uepb.edu.br/campus-viii-da-universidade-estadual-da-paraiba-celebra-nove-anos-de-fundacao-com-inauguracoes/feed/ [syndication_feed] => http://www.uepb.edu.br/category/centros/ccts/feed/ [syndication_feed_id] => 3 [syndication_permalink] => http://www.uepb.edu.br/campus-viii-da-universidade-estadual-da-paraiba-celebra-nove-anos-de-fundacao-com-inauguracoes/ [syndication_item_hash] => Array ( [0] => c561dbaae181f3b278a5a83c6850c96e [1] => 576748ff9f003fd7d8c310074de213ef ) ) [post_type] => post [post_author] => 25 [tax_input] => Array ( [category] => Array ( [0] => 7 [1] => 2 ) [post_tag] => Array ( ) [post_format] => Array ( ) ) [post_name] => campus-viii-da-universidade-estadual-da-paraiba-celebra-nove-anos-de-fundacao-com-inauguracoes )

Decide filter: Returning post, everything seems orderly :Câmpus VIII da Universidade Estadual da Paraíba celebra nove anos de fundação com inaugurações

Array ( [post_title] => Câmpus VIII da Universidade Estadual da Paraíba celebra nove anos de fundação com inaugurações [post_content] =>

Há nove anos, a Universidade Estadual da Paraíba (UEPB) ampliava sua abrangência e chegava ao Curimataú paraibano, consolidando, assim, sua presença em todas as regiões do Estado. O Centro de Ciências, Tecnologia e Saúde (CCTS), instalado na cidade de Araruna, mudou a realidade da região. A chegada do Câmpus VIII à localidade atraiu novos investimentos, impulsionou o comércio, modificou costumes e alavancou toda uma cadeia econômica em torno da cidade. A UEPB passou a disseminar conhecimentos e a formar novos profissionais na região, sem a necessidade deles se deslocarem para Campina Grande ou outros centros em busca do curso superior, novas perspectivas e novos horizontes.

Nesse período, mais de 350 profissionais já foram formados pelo CCTS e mais de 600 estudantes estão matriculados seguindo na trilha do conhecimento para se tornarem engenheiros, odontólogos ou físicos. Os projetos de extensão desenvolvidos pelos estudantes, com orientação dos professores, levam serviços gratuitos e melhora a qualidade de vida da população. No total, 35 projetos extensionistas estão em pleno andamento, beneficiando não só os moradores de Araruna, mas também das cidades circunvizinhas.

Como não podia ser diferente, as comemorações alusivas aos nove anos de fundação do Câmpus VIII foram realizadas em grande estilo, com direito a banda filarmônica, bolo, encontro de sanfoneiros, apresentação do Acauã da Serra, Feira Científica, homenagem ao centenário de Jackson do Pandeiro, exposição fotográfica e inaugurações. O ato solene de aniversário contou com a presença do reitor Rangel Junior; do diretor do Câmpus, professor Manuel Antônio Gordón Núñez; do diretor adjunto do CCTS, professor Raimundo Leidimar Bezerra; do prefeito de Araruna, Vital Costa; professores, estudantes e técnicos do CCTS.

O diretor do Centro, professor Manuel Antônio Gordón Núñez, ressaltou que apesar das dificuldades enfrentadas pelo Brasil e das ameaças às instituições públicas, o Câmpus VIII tem obtido importantes conquistas, o que é motivo para comemorar. Ele registrou o apoio da Administração Central e a parceria com a Prefeitura de Araruna como fundamentais para a realização de obras que, antes, eram um sonho. “Completamos nove anos de muito esforço, muita luta e trabalho intenso. Essa comemoração é um marco, pois mostra o papel da Universidade aberta para a comunidade”, destacou, acrescentando que o Câmpus VIII foi um divisor de águas na história de Araruna, mudando a realidade da região.

O reitor Rangel Junior parabenizou a gestão do CCTS pela luta, criatividade, ideias inovadoras e tenacidade para potencializar as ações e superar as adversidades. Diante da ausência de alguns gestores do Curso de Odontologia do Câmpus VIII, o reitor lamentou que as divergências políticas se sobreponham aos interesses institucionais e registrou que todos precisam saber exercer a tolerância, ter grandeza para conviver com o diferente e realizar gestos simples, mas significantes.

Rangel ressaltou que a presença da UEPB em Araruna ajudou a região a se desenvolver, o que demostra a importância dos investimentos feitos na Instituição. Ele disse que o Câmpus VIII sempre vai simbolizar o que é mais complexo em termos de esforço administrativo para fazer com que as coisas aconteçam na UEPB. Ele lembrou ainda que, mesmo sem as condições orçamentárias ideais para garantir a execução de obras grandes já planejadas, a Administração Central, com muita luta, estruturou as clínicas de Odontologia e concluiu o prédio do Curso de Engenharia Civil. “Temos aqui, em Araruna, dois dos cursos mais caros da Universidade. Eles são caros, porque eles têm uma importância muito grande pela necessidade existente na sociedade. O benefício é social. É um investimento para o povo da região”, destacou.

Como segundo diretor do Câmpus VIII, o professor Raimundo Leidimar disse que a chegada da UEPB foi um marco na história do Curimataú, devido aos benefícios levados para toda a comunidade, através dos projetos de Odontologia e Engenharia Civil. Com autoridade de quem acompanhou toda evolução do Câmpus, o professor disse que o CCTS supriu uma lacuna educacional da região. “A UEPB está de parabéns por ter instalado um Câmpus em uma região muito carente. Depois de nove anos, já vemos os frutos dessa iniciativa”, ressaltou.

Primeira gestora do Câmpus, a professora Alessandra Brandão enfatizou que a Universidade mudou o entorno de Araruna. A cidade, segundo ela, teve que se organizar para oferecer serviços que antes não existiam. Para ela, o CCTS deu grande contribuição ao Curimataú paraibano, não só na formação profissional, mas no fortalecimento cultural, social e econômico. “Não é possível imaginar mais Araruna e a região sem o Câmpus VIII”, analisou.

Presente na solenidade, o prefeito de Araruna, Vital Costa, disse que a UEPB tem colaborado com o município de Araruna, com parcerias que já geraram frutos proveitosos. “A Universidade tem nos ajudado nas nossas unidades de saúde, com os alunos de Odontologia e Engenharia Civil. Isso tem sido um resultado extremamente positivo para Araruna”, frisou. Sabendo da importância da Universidade para o desenvolvimento da cidade, ele garantiu que as parcerias vão continuar.

Inaugurações

Como parte das celebrações de aniversário, o Câmpus VIII ganhou novos equipamentos que ajudarão os estudantes no desenvolvimento de suas atividades acadêmicas, projetos e programas de extensão. Foi entregue ao CCTS o novo setor da Biblioteca Setorial, que foi totalmente reformado e passou a ter um mini auditório e sala de leitura. O descerramento da placa inaugural e o desenlace da fita foi feito pelo reitor Rangel Junior, pelos diretores do Câmpus e pelo prefeito de Araruna. O ato foi prestigiado pelo pró-reitor adjunto de Graduação, Altamir Souto, e pelo pró-reitor de Cultura, José Cristóvão de Andrade.

Na entrada da Biblioteca foi pintada uma “árvore do saber”, que simboliza o marco da inauguração. A obra idealizada e pintada pelo diretor significa todo o conhecimento que brota no Câmpus e as sementes que já deram frutos. Os diretores do Câmpus VIII e o reitor Rangel Junior foram os primeiros a deixarem as marcas de suas mãos impressas na parede colorida. As digitais de todos os 45 alunos envolvidos da Mostra Científica também ficaram para a posteridade na “árvore do saber”.

Em seguida os professores, estudantes, técnicos e visitantes conheceram as novas dependências da Biblioteca e a exposição do artista plástico de Cacimba de Dentro, Ronaldo Ferreira. Depois conheceram os outros equipamentos do Curso de Odontologia, que ganhou o novo Laboratório de Histopatologia, novas estruturas do Laboratório de Prótese Dentária e a Central de Esterilização II. As obras foram realizadas com recursos próprios da UEPB e por funcionários da Pró-Reitoria de Infraestrutura (PROINFRA).

O marco da 4ª Feira Científica

A 4ª Feira Científica e Cultural do Câmpus de Araruna foi um marco no 9º aniversário do CCTS. O evento, realizado ao longo de todo o dia, superou as expectativas. Mais de 1.500 pessoas passaram pela Feira e visitaram as tendas. Em sua 4ª edição, a Feira prestou homenagens ao centenário de Jackson do Pandeiro, com exposição de várias obras do “Rei do Ritmo”. O evento também contou com a presença de diversos estandes de prefeituras do Curimataú paraibano, que levaram exposição de artesanatos e apresentações culturais para o espaço.

No total, foram montadas 11 tendas abrigando projetos de extensão desenvolvidos pelos estudantes nas três áreas do conhecimento existentes no Centro, além das exposições das prefeituras de Araruna, Tacima, Riachão, Dona Inês, Solidade, Damião, Barra de Santa Rosa e Passa e Fica (RN). Uma das tendas abrigou o projeto “Meninas na Física e na Engenharia”, que há pouco menos de um ano realiza uma série de atividades voltadas a incentivar alunas dos ensinos fundamental e médio a se interessarem por carreiras científicas.

No curso de Engenharia Civil, o destaque foi a tenda do projeto “Pilares”. Trata-se de uma empresa júnior que tem ajudado a revolucionar a construção civil na região. O representante da empresa, o estudante Caio Sérgio Alves, do 8º período, revelou que o projeto visa aplicar na prática os conhecimentos do curso. Funcionando no CCTS, a empresa reúne equipamentos de um escritório da área, atuando de forma concreta na elaboração de projetos de engenharia, com serviços orçamentários e arquitetônicos. No momento, 15 alunos integram o projeto.

O cuidado com o meio ambiente foi representado pela tenda “Lixo Bom”, também realizado por estudantes de Engenharia Civil. O projeto, conforme explicou o professor Igor Sousa, tem o objetivo de modificar todo o manejo dos resíduos sólidos de Araruna através da coleta seletiva. Do curso de Odontologia, o destaque foi a tenda do projeto “Sorrindo sem cárie”. A estudante Maria Isabel Araújo, do 4º período, disse que o projeto mostra às crianças, de maneira divertida, utilizando música e teatro, quais os procedimentos voltados para a saúde bucal. O trabalho é realizado nas creches da região e, no momento, cinco estudantes estão envolvidos na iniciativa.

O Câmpus de Araruna “Professora Maria da Penha” foi inaugurado no dia 20 de setembro de 2010 e, atualmente, abriga os cursos de Bacharelado em Engenharia Civil, Licenciatura em Física e Bacharelado em Odontologia. Conta com mais de 600 alunos matriculados, 42 técnicos administrativos e 73 docentes em atividade no Centro de Ciências, Tecnologia e Saúde.

Texto: Severino Lopes
Fotos: Paizinha Lemos

O post Câmpus VIII da Universidade Estadual da Paraíba celebra nove anos de fundação com inaugurações apareceu primeiro em UEPB.

[post_excerpt] =>

Há nove anos, a Universidade Estadual da Paraíba (UEPB) ampliava sua abrangência e chegava ao Curimataú paraibano, consolidando, assim, sua presença em todas as regiões do Estado. O Centro de Ciências, Tecnologia e Saúde (CCTS), instalado na cidade de Araruna, mudou a realidade da região. A chegada do Câmpus VIII à localidade atraiu novos investimentos, Leia Mais...

O post Câmpus VIII da Universidade Estadual da Paraíba celebra nove anos de fundação com inaugurações apareceu primeiro em UEPB.

[post_date_gmt] => 2019-09-27 11:38:16 [post_date] => 2019-09-27 11:38:16 [post_modified_gmt] => 2019-09-27 11:38:16 [post_modified] => 2019-09-27 11:38:16 [post_status] => publish [comment_status] => closed [ping_status] => closed [guid] => http://www.uepb.edu.br/?p=51555 [meta] => Array ( [enclosure] => Array ( [0] => ) [syndication_source] => CCTS – UEPB [syndication_source_uri] => http://www.uepb.edu.br [syndication_source_id] => http://www.uepb.edu.br/category/centros/ccts/feed/ [rss:comments] => http://www.uepb.edu.br/campus-viii-da-universidade-estadual-da-paraiba-celebra-nove-anos-de-fundacao-com-inauguracoes/#respond [wfw:commentRSS] => http://www.uepb.edu.br/campus-viii-da-universidade-estadual-da-paraiba-celebra-nove-anos-de-fundacao-com-inauguracoes/feed/ [syndication_feed] => http://www.uepb.edu.br/category/centros/ccts/feed/ [syndication_feed_id] => 3 [syndication_permalink] => http://www.uepb.edu.br/campus-viii-da-universidade-estadual-da-paraiba-celebra-nove-anos-de-fundacao-com-inauguracoes/ [syndication_item_hash] => Array ( [0] => c561dbaae181f3b278a5a83c6850c96e [1] => 576748ff9f003fd7d8c310074de213ef ) ) [post_type] => post [post_author] => 25 [tax_input] => Array ( [category] => Array ( [0] => 7 [1] => 2 ) [post_tag] => Array ( ) [post_format] => Array ( ) ) [post_name] => campus-viii-da-universidade-estadual-da-paraiba-celebra-nove-anos-de-fundacao-com-inauguracoes )

FAF deciding on filters on post to be syndicated:

Câmpus VIII da Universidade Estadual celebra nove anos de fundação com inaugurações e Feira Científica

Array ( [post_title] => Câmpus VIII da Universidade Estadual celebra nove anos de fundação com inaugurações e Feira Científica [post_content] =>

O Centro de Ciências, Tecnologia e Saúde (CCTS) do Câmpus VIII da Universidade Estadual da Paraíba (UEPB), instalado na cidade de Araruna, está completando nove anos de fundação e, para marcar a data, a direção preparou uma programação especial com uma série de inaugurações e mais uma edição da Feira Científica Cultural.

Na solenidade marcada para o dia 25 de setembro, serão inaugurados o novo Laboratório de Histopatologia, o Laboratório de Prótese Dentária e a Central de Esterilização II (todos equipamentos da Clínica Escola do Curso de Odontologia), além da entrega do novo setor da Biblioteca Setorial do Câmpus VIII, que foi totalmente reformada. As obras foram realizadas com recursos próprios da UEPB.

Após as inaugurações, às 17h, acontece o ato protocolar alusivo aos nove anos do Câmpus. O aniversário do CCTS também será marcado pela realização da 4ª Feira Científica Cultural que, este ano, prestará homenagens ao centenário de Jackson do Pandeiro. O evento, voltado para os estudantes e professores dos cursos de Odontologia, Engenharia Civil e Física, terá novidades este ano. Uma delas será a presença de diversos estandes de prefeituras do Curimataú paraibano, com exposição de artesanatos e apresentações culturais.

A feira será realizada das 8h às 17h e terá como destaque a exposição, em forma de painel, dos projetos e programas desenvolvidos no Câmpus VIII. O diretor do CCTS, professor Manuel Antônio Gordón Nuñez, destacou a importância das parcerias que a UEPB está realizando com diversas prefeituras paraibanas. Ele lembrou que a presença de um Câmpus da Instituição no Curimataú paraibano ajudou a modificar a realidade da região, visto que além de formar profissionais e oferecer diversos serviços a população, a Universidade ajuda a impulsionar a economia local.

O Câmpus de Araruna “Professora Maria da Penha” foi inaugurado no dia 20 de setembro de 2010 e, atualmente, abriga os cursos de Bacharelado em Engenharia Civil, Licenciatura em Física e Bacharelado em Odontologia. Conta com mais de 600 alunos matriculados e 73 docentes em atividade no Centro de Ciências, Tecnologia e Saúde.

Texto: Severino Lopes
Foto: Arquivo Codecom UEPB

O post Câmpus VIII da Universidade Estadual celebra nove anos de fundação com inaugurações e Feira Científica apareceu primeiro em UEPB.

[post_excerpt] =>

O Centro de Ciências, Tecnologia e Saúde (CCTS) do Câmpus VIII da Universidade Estadual da Paraíba (UEPB), instalado na cidade de Araruna, está completando nove anos de fundação e, para marcar a data, a direção preparou uma programação especial com uma série de inaugurações e mais uma edição da Feira Científica Cultural. Na solenidade marcada Leia Mais...

O post Câmpus VIII da Universidade Estadual celebra nove anos de fundação com inaugurações e Feira Científica apareceu primeiro em UEPB.

[post_date_gmt] => 2019-09-06 11:37:22 [post_date] => 2019-09-06 11:37:22 [post_modified_gmt] => 2019-09-06 11:37:22 [post_modified] => 2019-09-06 11:37:22 [post_status] => publish [comment_status] => closed [ping_status] => closed [guid] => http://www.uepb.edu.br/?p=51072 [meta] => Array ( [enclosure] => Array ( [0] => ) [syndication_source] => CCTS – UEPB [syndication_source_uri] => http://www.uepb.edu.br [syndication_source_id] => http://www.uepb.edu.br/category/centros/ccts/feed/ [rss:comments] => http://www.uepb.edu.br/campus-viii-da-universidade-estadual-celebra-nove-anos-de-fundacao-com-inauguracoes-e-feira-cientifica/#respond [wfw:commentRSS] => http://www.uepb.edu.br/campus-viii-da-universidade-estadual-celebra-nove-anos-de-fundacao-com-inauguracoes-e-feira-cientifica/feed/ [syndication_feed] => http://www.uepb.edu.br/category/centros/ccts/feed/ [syndication_feed_id] => 3 [syndication_permalink] => http://www.uepb.edu.br/campus-viii-da-universidade-estadual-celebra-nove-anos-de-fundacao-com-inauguracoes-e-feira-cientifica/ [syndication_item_hash] => Array ( [0] => da8f29bcc81a6989a488dd21492a5da3 [1] => ecce817977bc2ebed267e5fb76984f11 ) ) [post_type] => post [post_author] => 25 [tax_input] => Array ( [category] => Array ( [0] => 7 [1] => 2 ) [post_tag] => Array ( ) [post_format] => Array ( ) ) [post_name] => campus-viii-da-universidade-estadual-celebra-nove-anos-de-fundacao-com-inauguracoes-e-feira-cientifica )

Decide filter: Returning post, everything seems orderly :Câmpus VIII da Universidade Estadual celebra nove anos de fundação com inaugurações e Feira Científica

Array ( [post_title] => Câmpus VIII da Universidade Estadual celebra nove anos de fundação com inaugurações e Feira Científica [post_content] =>

O Centro de Ciências, Tecnologia e Saúde (CCTS) do Câmpus VIII da Universidade Estadual da Paraíba (UEPB), instalado na cidade de Araruna, está completando nove anos de fundação e, para marcar a data, a direção preparou uma programação especial com uma série de inaugurações e mais uma edição da Feira Científica Cultural.

Na solenidade marcada para o dia 25 de setembro, serão inaugurados o novo Laboratório de Histopatologia, o Laboratório de Prótese Dentária e a Central de Esterilização II (todos equipamentos da Clínica Escola do Curso de Odontologia), além da entrega do novo setor da Biblioteca Setorial do Câmpus VIII, que foi totalmente reformada. As obras foram realizadas com recursos próprios da UEPB.

Após as inaugurações, às 17h, acontece o ato protocolar alusivo aos nove anos do Câmpus. O aniversário do CCTS também será marcado pela realização da 4ª Feira Científica Cultural que, este ano, prestará homenagens ao centenário de Jackson do Pandeiro. O evento, voltado para os estudantes e professores dos cursos de Odontologia, Engenharia Civil e Física, terá novidades este ano. Uma delas será a presença de diversos estandes de prefeituras do Curimataú paraibano, com exposição de artesanatos e apresentações culturais.

A feira será realizada das 8h às 17h e terá como destaque a exposição, em forma de painel, dos projetos e programas desenvolvidos no Câmpus VIII. O diretor do CCTS, professor Manuel Antônio Gordón Nuñez, destacou a importância das parcerias que a UEPB está realizando com diversas prefeituras paraibanas. Ele lembrou que a presença de um Câmpus da Instituição no Curimataú paraibano ajudou a modificar a realidade da região, visto que além de formar profissionais e oferecer diversos serviços a população, a Universidade ajuda a impulsionar a economia local.

O Câmpus de Araruna “Professora Maria da Penha” foi inaugurado no dia 20 de setembro de 2010 e, atualmente, abriga os cursos de Bacharelado em Engenharia Civil, Licenciatura em Física e Bacharelado em Odontologia. Conta com mais de 600 alunos matriculados e 73 docentes em atividade no Centro de Ciências, Tecnologia e Saúde.

Texto: Severino Lopes
Foto: Arquivo Codecom UEPB

O post Câmpus VIII da Universidade Estadual celebra nove anos de fundação com inaugurações e Feira Científica apareceu primeiro em UEPB.

[post_excerpt] =>

O Centro de Ciências, Tecnologia e Saúde (CCTS) do Câmpus VIII da Universidade Estadual da Paraíba (UEPB), instalado na cidade de Araruna, está completando nove anos de fundação e, para marcar a data, a direção preparou uma programação especial com uma série de inaugurações e mais uma edição da Feira Científica Cultural. Na solenidade marcada Leia Mais...

O post Câmpus VIII da Universidade Estadual celebra nove anos de fundação com inaugurações e Feira Científica apareceu primeiro em UEPB.

[post_date_gmt] => 2019-09-06 11:37:22 [post_date] => 2019-09-06 11:37:22 [post_modified_gmt] => 2019-09-06 11:37:22 [post_modified] => 2019-09-06 11:37:22 [post_status] => publish [comment_status] => closed [ping_status] => closed [guid] => http://www.uepb.edu.br/?p=51072 [meta] => Array ( [enclosure] => Array ( [0] => ) [syndication_source] => CCTS – UEPB [syndication_source_uri] => http://www.uepb.edu.br [syndication_source_id] => http://www.uepb.edu.br/category/centros/ccts/feed/ [rss:comments] => http://www.uepb.edu.br/campus-viii-da-universidade-estadual-celebra-nove-anos-de-fundacao-com-inauguracoes-e-feira-cientifica/#respond [wfw:commentRSS] => http://www.uepb.edu.br/campus-viii-da-universidade-estadual-celebra-nove-anos-de-fundacao-com-inauguracoes-e-feira-cientifica/feed/ [syndication_feed] => http://www.uepb.edu.br/category/centros/ccts/feed/ [syndication_feed_id] => 3 [syndication_permalink] => http://www.uepb.edu.br/campus-viii-da-universidade-estadual-celebra-nove-anos-de-fundacao-com-inauguracoes-e-feira-cientifica/ [syndication_item_hash] => Array ( [0] => da8f29bcc81a6989a488dd21492a5da3 [1] => ecce817977bc2ebed267e5fb76984f11 ) ) [post_type] => post [post_author] => 25 [tax_input] => Array ( [category] => Array ( [0] => 7 [1] => 2 ) [post_tag] => Array ( ) [post_format] => Array ( ) ) [post_name] => campus-viii-da-universidade-estadual-celebra-nove-anos-de-fundacao-com-inauguracoes-e-feira-cientifica )

FAF deciding on filters on post to be syndicated:

Centro de Ciências, Tecnologia e Saúde abre seleção para contratação de profissional técnico em informática

Array ( [post_title] => Centro de Ciências, Tecnologia e Saúde abre seleção para contratação de profissional técnico em informática [post_content] =>

O Centro de Ciências, Tecnologia e Saúde (CCTS) da Universidade Estadual da Paraíba (UEPB), localizado na cidade de Araruna, está com edital aberto para contratação de profissional técnico em Informática. As inscrições serão realizadas entre os dias 2 e 6 de setembro, das 8h às 16h, diretamente na Secretaria do Câmpus VIII. No ato da inscrição o candidato deve apresentar os seguintes documentos: cópias do RG e CPF, Currículo com documentos comprobatórios, cópia do Certificado de Conclusão do Curso e ficha de inscrição preenchida.

Está sendo oferecida uma vaga, com salário de R$ 2.394,35, com regime de trabalho de 40 horas semanais. O processo seletivo contará com as fases de prova teórica e prática, análise curricular, entrevista e treinamento na Coordenadoria de Tecnologia da Informação e Comunicação (CTIC). Outras informações podem ser obtidas na Secretaria do Centro ou pelos telefones (83) 3373-1040 e 3373-1415.

Acesse:

Texto: Givaldo Cavalcanti

O post Centro de Ciências, Tecnologia e Saúde abre seleção para contratação de profissional técnico em informática apareceu primeiro em UEPB.

[post_excerpt] =>

O Centro de Ciências, Tecnologia e Saúde (CCTS) da Universidade Estadual da Paraíba (UEPB), localizado na cidade de Araruna, está com edital aberto para contratação de profissional técnico em Informática. As inscrições serão realizadas entre os dias 2 e 6 de setembro, das 8h às 16h, diretamente na Secretaria do Câmpus VIII. No ato da Leia Mais...

O post Centro de Ciências, Tecnologia e Saúde abre seleção para contratação de profissional técnico em informática apareceu primeiro em UEPB.

[post_date_gmt] => 2019-08-28 14:44:43 [post_date] => 2019-08-28 14:44:43 [post_modified_gmt] => 2019-08-28 14:44:43 [post_modified] => 2019-08-28 14:44:43 [post_status] => publish [comment_status] => closed [ping_status] => closed [guid] => http://www.uepb.edu.br/?p=50809 [meta] => Array ( [enclosure] => Array ( [0] => ) [syndication_source] => CCTS – UEPB [syndication_source_uri] => http://www.uepb.edu.br [syndication_source_id] => http://www.uepb.edu.br/category/centros/ccts/feed/ [rss:comments] => http://www.uepb.edu.br/centro-de-ciencias-tecnologia-e-saude-abre-selecao-para-contratacao-de-profissional-tecnico-em-informatica/#respond [wfw:commentRSS] => http://www.uepb.edu.br/centro-de-ciencias-tecnologia-e-saude-abre-selecao-para-contratacao-de-profissional-tecnico-em-informatica/feed/ [syndication_feed] => http://www.uepb.edu.br/category/centros/ccts/feed/ [syndication_feed_id] => 3 [syndication_permalink] => http://www.uepb.edu.br/centro-de-ciencias-tecnologia-e-saude-abre-selecao-para-contratacao-de-profissional-tecnico-em-informatica/ [syndication_item_hash] => Array ( [0] => 91c788beb13995debd9207761e442308 [1] => 8b10c6131e4c5f5516cb7ae97ef345f5 ) ) [post_type] => post [post_author] => 25 [tax_input] => Array ( [category] => Array ( [0] => 7 [1] => 2 ) [post_tag] => Array ( ) [post_format] => Array ( ) ) [post_name] => centro-de-ciencias-tecnologia-e-saude-abre-selecao-para-contratacao-de-profissional-tecnico-em-informatica )

Decide filter: Returning post, everything seems orderly :Centro de Ciências, Tecnologia e Saúde abre seleção para contratação de profissional técnico em informática

Array ( [post_title] => Centro de Ciências, Tecnologia e Saúde abre seleção para contratação de profissional técnico em informática [post_content] =>

O Centro de Ciências, Tecnologia e Saúde (CCTS) da Universidade Estadual da Paraíba (UEPB), localizado na cidade de Araruna, está com edital aberto para contratação de profissional técnico em Informática. As inscrições serão realizadas entre os dias 2 e 6 de setembro, das 8h às 16h, diretamente na Secretaria do Câmpus VIII. No ato da inscrição o candidato deve apresentar os seguintes documentos: cópias do RG e CPF, Currículo com documentos comprobatórios, cópia do Certificado de Conclusão do Curso e ficha de inscrição preenchida.

Está sendo oferecida uma vaga, com salário de R$ 2.394,35, com regime de trabalho de 40 horas semanais. O processo seletivo contará com as fases de prova teórica e prática, análise curricular, entrevista e treinamento na Coordenadoria de Tecnologia da Informação e Comunicação (CTIC). Outras informações podem ser obtidas na Secretaria do Centro ou pelos telefones (83) 3373-1040 e 3373-1415.

Acesse:

Texto: Givaldo Cavalcanti

O post Centro de Ciências, Tecnologia e Saúde abre seleção para contratação de profissional técnico em informática apareceu primeiro em UEPB.

[post_excerpt] =>

O Centro de Ciências, Tecnologia e Saúde (CCTS) da Universidade Estadual da Paraíba (UEPB), localizado na cidade de Araruna, está com edital aberto para contratação de profissional técnico em Informática. As inscrições serão realizadas entre os dias 2 e 6 de setembro, das 8h às 16h, diretamente na Secretaria do Câmpus VIII. No ato da Leia Mais...

O post Centro de Ciências, Tecnologia e Saúde abre seleção para contratação de profissional técnico em informática apareceu primeiro em UEPB.

[post_date_gmt] => 2019-08-28 14:44:43 [post_date] => 2019-08-28 14:44:43 [post_modified_gmt] => 2019-08-28 14:44:43 [post_modified] => 2019-08-28 14:44:43 [post_status] => publish [comment_status] => closed [ping_status] => closed [guid] => http://www.uepb.edu.br/?p=50809 [meta] => Array ( [enclosure] => Array ( [0] => ) [syndication_source] => CCTS – UEPB [syndication_source_uri] => http://www.uepb.edu.br [syndication_source_id] => http://www.uepb.edu.br/category/centros/ccts/feed/ [rss:comments] => http://www.uepb.edu.br/centro-de-ciencias-tecnologia-e-saude-abre-selecao-para-contratacao-de-profissional-tecnico-em-informatica/#respond [wfw:commentRSS] => http://www.uepb.edu.br/centro-de-ciencias-tecnologia-e-saude-abre-selecao-para-contratacao-de-profissional-tecnico-em-informatica/feed/ [syndication_feed] => http://www.uepb.edu.br/category/centros/ccts/feed/ [syndication_feed_id] => 3 [syndication_permalink] => http://www.uepb.edu.br/centro-de-ciencias-tecnologia-e-saude-abre-selecao-para-contratacao-de-profissional-tecnico-em-informatica/ [syndication_item_hash] => Array ( [0] => 91c788beb13995debd9207761e442308 [1] => 8b10c6131e4c5f5516cb7ae97ef345f5 ) ) [post_type] => post [post_author] => 25 [tax_input] => Array ( [category] => Array ( [0] => 7 [1] => 2 ) [post_tag] => Array ( ) [post_format] => Array ( ) ) [post_name] => centro-de-ciencias-tecnologia-e-saude-abre-selecao-para-contratacao-de-profissional-tecnico-em-informatica )

FAF deciding on filters on post to be syndicated:

Colação de grau marca formatura de novos profissionais do Centro de Ciências, Tecnologia e Saúde da UEPB

Array ( [post_title] => Colação de grau marca formatura de novos profissionais do Centro de Ciências, Tecnologia e Saúde da UEPB [post_content] =>

Após grande dedicação nos últimos anos, os concluintes dos cursos de Licenciatura em Física, Engenharia Civil e do Bacharelado em Odontologia do Centro de Ciências, Tecnologia e Saúde (CCTS) da Universidade Estadual da Paraíba (UEPB), período 2019.1, colaram grau acadêmico em cerimônia realizada nesta sexta-feira (26), na Vila Requinte, em Araruna. A solenidade confirmou o reconhecimento dos trabalhos acadêmicos produzidos pelos formandos e professores do Câmpus VIII. O pró-reitor de Graduação, professor Eli Brandão, presidiu o ato representando o reitor da Instituição, professor Rangel Junior.

Para proferir o juramento, a aluna Maria Valdeilma Félix dos Santos, do curso de Licenciatura em Física, representou todos os formandos. Já o Orador Oficial das turmas foi Francisco Alisson dos Santos, do curso de Odontologia, que, em sua fala, agradeceu aos professores do Centro, como também aos familiares e todas as pessoas que sempre contribuíram para que os alunos alcancem êxito ao longo da formação profissional.

“Foram anos de dedicação. Cada formando traz consigo um sentimento único, seja pela realização de um sonho ou pela busca da estabilidade financeira. Amizades que irão nos acompanhar ao longo de nossa jornada. Um turbilhão de emoções que nos rodeia nesse instante, que pode ser um misto de alívio e saudade, de medo e coragem de enfrentar os novos desafios. Chegou o momento de cada um seguir viagem sozinho. Que as experiências compartilhadas no percurso até aqui sejam a alavanca para alcançarmos a alegria de chegar ao destino projetado”, disse o Orador.

A Paraninfa Geral das turmas concluintes, professora Alidiane Fábia Cabral Cavalcanti, emocionou os formandos com palavras encorajadoras e de reconhecimento pela vitória que todos conquistaram ao chegar até este momento. Ela ainda aconselhou para que, por mais que a rotina diária profissional comprometa a administração do tempo, eles sempre busquem novos conhecimentos e aprimorem suas habilidades adquiridas de forma constante.

“Levem consigo, no retorno às suas cidades, todo conhecimento acumulado ao longo da formação na UEPB. E, sobrepujando a capacidade que terão, os formandos em Engenharia, prde ojetar, gerenciar e executar obras; os de Física, realizar complexos cálculos matemáticos ou verificar experimentalmente novos fenômenos; e os de Odontologia, modificar sorrisos e reestabelecer a saúde bucal das populações, sejam capazes de contribuir para a melhoria da qualidade de vida de outras pessoas”, destacou a Paraninfa.

Já o diretor do CCTS, professor Manuel Antônio Gordón Núñez, lembrou da importância que os pais dos formandos têm neste momento de celebração da formatura. Os fatores distância, saudade e demais dificuldades foram apontadas como superação de toda família, que compartilhou sonhos conjuntos que estão sendo traduzidos nesse momento de celebração. “Tudo isso justifica o estado de felicidade merecida que vocês, caríssimos pais, têm todo o direito de experimentar. Esse momento foi sonhado e forjado passo a passo por vocês, e a nós, professores e a UEPB, só nos resta agradecer por terem confiado a formação acadêmica dos seus filhos em nossas mãos”, disse.

O pró-reitor de Graduação da UEPB, professor Eli Brandão, também falou aos formandos lembrando do privilégio que tiveram por concluírem o curso em uma universidade pública, além de fortalecerem o compromisso em defesa da universidade pública, autônoma e laica. De acordo com ele, não há um só município na Paraíba que não tenha a ação direta da UEPB, como um estudante formado ou indivíduo que receba atenção da Universidade. Contudo, para que isso continue sendo realizado, é preciso a manutenção dos investimentos na educação pública, para que cada vez mais pessoas tenham acesso a esses serviços.

“Esse cenário de alerta que estamos vivenciando na Educação não é para desanimá-los, mas sim para desafiá-los a renovarem a aposta na educação, na luta, no Brasil. A aposta em vocês, no sonho e na vida. Nós acreditamos que, como vocês conseguiram vencer esse primeiro obstáculo até chegarem aqui, conseguirão ampliar essa luta e vão se capacitar, buscando aprofundar a semente do saber na vida de vocês”, disse professor Eli Brandão.

A cerimônia de conferência do grau acadêmico foi inciada pelo curso de Física. O coordenador do curso, professor João Hugo Baracuy da Cunha Campos, conferiu o grau a aluna Jácia Leana Moreira da Silva, que representou todos seus colegas de turma. Já André Luiz Lima de Souza, formando do curso de Engenharia Civil, recebeu o grau acadêmico do coordenador adjunto do curso, professor Alan Barbosa Cavalcanti. Posteriormente, o professor Fernando Antônio de Faras Aires Júnior, coordenador do curso de Odontologia, conferiu o grau a Lucas Almeida Barbosa.

Também participaram da solenidade de Colação de Grau do CCTS o professor Raimundo Leidimar Bezerra, diretor adjunto do Centro; o professor Altamir Souto Dias, pró-reitor adjunto de Graduação da UEPB; e Francisco Belarmino, secretário de Educação de Araruna, que na oportunidade representou o prefeito do município, Vital Costa.

Texto: Givaldo Cavalcanti
Fotos: Paizinha Lemos

O post Colação de grau marca formatura de novos profissionais do Centro de Ciências, Tecnologia e Saúde da UEPB apareceu primeiro em UEPB.

[post_excerpt] =>

Após grande dedicação nos últimos anos, os concluintes dos cursos de Licenciatura em Física, Engenharia Civil e do Bacharelado em Odontologia do Centro de Ciências, Tecnologia e Saúde (CCTS) da Universidade Estadual da Paraíba (UEPB), período 2019.1, colaram grau acadêmico em cerimônia realizada nesta sexta-feira (26), na Vila Requinte, em Araruna. A solenidade confirmou o Leia Mais...

O post Colação de grau marca formatura de novos profissionais do Centro de Ciências, Tecnologia e Saúde da UEPB apareceu primeiro em UEPB.

[post_date_gmt] => 2019-07-27 15:59:15 [post_date] => 2019-07-27 15:59:15 [post_modified_gmt] => 2019-07-27 15:59:15 [post_modified] => 2019-07-27 15:59:15 [post_status] => publish [comment_status] => closed [ping_status] => closed [guid] => http://www.uepb.edu.br/?p=50045 [meta] => Array ( [enclosure] => Array ( [0] => ) [syndication_source] => CCTS – UEPB [syndication_source_uri] => http://www.uepb.edu.br [syndication_source_id] => http://www.uepb.edu.br/category/centros/ccts/feed/ [rss:comments] => http://www.uepb.edu.br/colacao-de-grau-marca-formatura-de-novos-profissionais-do-centro-de-ciencias-tecnologia-e-saude-da-uepb/#respond [wfw:commentRSS] => http://www.uepb.edu.br/colacao-de-grau-marca-formatura-de-novos-profissionais-do-centro-de-ciencias-tecnologia-e-saude-da-uepb/feed/ [syndication_feed] => http://www.uepb.edu.br/category/centros/ccts/feed/ [syndication_feed_id] => 3 [syndication_permalink] => http://www.uepb.edu.br/colacao-de-grau-marca-formatura-de-novos-profissionais-do-centro-de-ciencias-tecnologia-e-saude-da-uepb/ [syndication_item_hash] => Array ( [0] => b0194b193fcb9d7f6c88a8392e5da4a8 [1] => 2eb057d54f963745a974d73c8ce65163 ) ) [post_type] => post [post_author] => 25 [tax_input] => Array ( [category] => Array ( [0] => 7 [1] => 2 [2] => 35 ) [post_tag] => Array ( ) [post_format] => Array ( ) ) [post_name] => colacao-de-grau-marca-formatura-de-novos-profissionais-do-centro-de-ciencias-tecnologia-e-saude-da-uepb )

Decide filter: Returning post, everything seems orderly :Colação de grau marca formatura de novos profissionais do Centro de Ciências, Tecnologia e Saúde da UEPB

Array ( [post_title] => Colação de grau marca formatura de novos profissionais do Centro de Ciências, Tecnologia e Saúde da UEPB [post_content] =>

Após grande dedicação nos últimos anos, os concluintes dos cursos de Licenciatura em Física, Engenharia Civil e do Bacharelado em Odontologia do Centro de Ciências, Tecnologia e Saúde (CCTS) da Universidade Estadual da Paraíba (UEPB), período 2019.1, colaram grau acadêmico em cerimônia realizada nesta sexta-feira (26), na Vila Requinte, em Araruna. A solenidade confirmou o reconhecimento dos trabalhos acadêmicos produzidos pelos formandos e professores do Câmpus VIII. O pró-reitor de Graduação, professor Eli Brandão, presidiu o ato representando o reitor da Instituição, professor Rangel Junior.

Para proferir o juramento, a aluna Maria Valdeilma Félix dos Santos, do curso de Licenciatura em Física, representou todos os formandos. Já o Orador Oficial das turmas foi Francisco Alisson dos Santos, do curso de Odontologia, que, em sua fala, agradeceu aos professores do Centro, como também aos familiares e todas as pessoas que sempre contribuíram para que os alunos alcancem êxito ao longo da formação profissional.

“Foram anos de dedicação. Cada formando traz consigo um sentimento único, seja pela realização de um sonho ou pela busca da estabilidade financeira. Amizades que irão nos acompanhar ao longo de nossa jornada. Um turbilhão de emoções que nos rodeia nesse instante, que pode ser um misto de alívio e saudade, de medo e coragem de enfrentar os novos desafios. Chegou o momento de cada um seguir viagem sozinho. Que as experiências compartilhadas no percurso até aqui sejam a alavanca para alcançarmos a alegria de chegar ao destino projetado”, disse o Orador.

A Paraninfa Geral das turmas concluintes, professora Alidiane Fábia Cabral Cavalcanti, emocionou os formandos com palavras encorajadoras e de reconhecimento pela vitória que todos conquistaram ao chegar até este momento. Ela ainda aconselhou para que, por mais que a rotina diária profissional comprometa a administração do tempo, eles sempre busquem novos conhecimentos e aprimorem suas habilidades adquiridas de forma constante.

“Levem consigo, no retorno às suas cidades, todo conhecimento acumulado ao longo da formação na UEPB. E, sobrepujando a capacidade que terão, os formandos em Engenharia, prde ojetar, gerenciar e executar obras; os de Física, realizar complexos cálculos matemáticos ou verificar experimentalmente novos fenômenos; e os de Odontologia, modificar sorrisos e reestabelecer a saúde bucal das populações, sejam capazes de contribuir para a melhoria da qualidade de vida de outras pessoas”, destacou a Paraninfa.

Já o diretor do CCTS, professor Manuel Antônio Gordón Núñez, lembrou da importância que os pais dos formandos têm neste momento de celebração da formatura. Os fatores distância, saudade e demais dificuldades foram apontadas como superação de toda família, que compartilhou sonhos conjuntos que estão sendo traduzidos nesse momento de celebração. “Tudo isso justifica o estado de felicidade merecida que vocês, caríssimos pais, têm todo o direito de experimentar. Esse momento foi sonhado e forjado passo a passo por vocês, e a nós, professores e a UEPB, só nos resta agradecer por terem confiado a formação acadêmica dos seus filhos em nossas mãos”, disse.

O pró-reitor de Graduação da UEPB, professor Eli Brandão, também falou aos formandos lembrando do privilégio que tiveram por concluírem o curso em uma universidade pública, além de fortalecerem o compromisso em defesa da universidade pública, autônoma e laica. De acordo com ele, não há um só município na Paraíba que não tenha a ação direta da UEPB, como um estudante formado ou indivíduo que receba atenção da Universidade. Contudo, para que isso continue sendo realizado, é preciso a manutenção dos investimentos na educação pública, para que cada vez mais pessoas tenham acesso a esses serviços.

“Esse cenário de alerta que estamos vivenciando na Educação não é para desanimá-los, mas sim para desafiá-los a renovarem a aposta na educação, na luta, no Brasil. A aposta em vocês, no sonho e na vida. Nós acreditamos que, como vocês conseguiram vencer esse primeiro obstáculo até chegarem aqui, conseguirão ampliar essa luta e vão se capacitar, buscando aprofundar a semente do saber na vida de vocês”, disse professor Eli Brandão.

A cerimônia de conferência do grau acadêmico foi inciada pelo curso de Física. O coordenador do curso, professor João Hugo Baracuy da Cunha Campos, conferiu o grau a aluna Jácia Leana Moreira da Silva, que representou todos seus colegas de turma. Já André Luiz Lima de Souza, formando do curso de Engenharia Civil, recebeu o grau acadêmico do coordenador adjunto do curso, professor Alan Barbosa Cavalcanti. Posteriormente, o professor Fernando Antônio de Faras Aires Júnior, coordenador do curso de Odontologia, conferiu o grau a Lucas Almeida Barbosa.

Também participaram da solenidade de Colação de Grau do CCTS o professor Raimundo Leidimar Bezerra, diretor adjunto do Centro; o professor Altamir Souto Dias, pró-reitor adjunto de Graduação da UEPB; e Francisco Belarmino, secretário de Educação de Araruna, que na oportunidade representou o prefeito do município, Vital Costa.

Texto: Givaldo Cavalcanti
Fotos: Paizinha Lemos

O post Colação de grau marca formatura de novos profissionais do Centro de Ciências, Tecnologia e Saúde da UEPB apareceu primeiro em UEPB.

[post_excerpt] =>

Após grande dedicação nos últimos anos, os concluintes dos cursos de Licenciatura em Física, Engenharia Civil e do Bacharelado em Odontologia do Centro de Ciências, Tecnologia e Saúde (CCTS) da Universidade Estadual da Paraíba (UEPB), período 2019.1, colaram grau acadêmico em cerimônia realizada nesta sexta-feira (26), na Vila Requinte, em Araruna. A solenidade confirmou o Leia Mais...

O post Colação de grau marca formatura de novos profissionais do Centro de Ciências, Tecnologia e Saúde da UEPB apareceu primeiro em UEPB.

[post_date_gmt] => 2019-07-27 15:59:15 [post_date] => 2019-07-27 15:59:15 [post_modified_gmt] => 2019-07-27 15:59:15 [post_modified] => 2019-07-27 15:59:15 [post_status] => publish [comment_status] => closed [ping_status] => closed [guid] => http://www.uepb.edu.br/?p=50045 [meta] => Array ( [enclosure] => Array ( [0] => ) [syndication_source] => CCTS – UEPB [syndication_source_uri] => http://www.uepb.edu.br [syndication_source_id] => http://www.uepb.edu.br/category/centros/ccts/feed/ [rss:comments] => http://www.uepb.edu.br/colacao-de-grau-marca-formatura-de-novos-profissionais-do-centro-de-ciencias-tecnologia-e-saude-da-uepb/#respond [wfw:commentRSS] => http://www.uepb.edu.br/colacao-de-grau-marca-formatura-de-novos-profissionais-do-centro-de-ciencias-tecnologia-e-saude-da-uepb/feed/ [syndication_feed] => http://www.uepb.edu.br/category/centros/ccts/feed/ [syndication_feed_id] => 3 [syndication_permalink] => http://www.uepb.edu.br/colacao-de-grau-marca-formatura-de-novos-profissionais-do-centro-de-ciencias-tecnologia-e-saude-da-uepb/ [syndication_item_hash] => Array ( [0] => b0194b193fcb9d7f6c88a8392e5da4a8 [1] => 2eb057d54f963745a974d73c8ce65163 ) ) [post_type] => post [post_author] => 25 [tax_input] => Array ( [category] => Array ( [0] => 7 [1] => 2 [2] => 35 ) [post_tag] => Array ( ) [post_format] => Array ( ) ) [post_name] => colacao-de-grau-marca-formatura-de-novos-profissionais-do-centro-de-ciencias-tecnologia-e-saude-da-uepb )

FAF deciding on filters on post to be syndicated:

Pró-Reitoria de Gestão de Pessoas encerra atividades do projeto “Saúde do Trabalhador Itinerante” no Câmpus VIII

Array ( [post_title] => Pró-Reitoria de Gestão de Pessoas encerra atividades do projeto “Saúde do Trabalhador Itinerante” no Câmpus VIII [post_content] =>

A Pró-Reitoria de Gestão de Pessoas (PROGEP) da Universidade Estadual da Paraíba (UEPB), através dos setores Saúde do Trabalhador e Serviço Social, encerrou, nesta terça-feira (18), no Centro de Ciências, Tecnologia e Saúde (CCTS), em Araruna, as atividades do primeiro semestre de 2019 do projeto “Saúde do Trabalhador Itinerante”.

O projeto nasceu da necessidade de aproximação do Setor Saúde do Trabalhador com os diversos setores e câmpus da UEPB, especificamente no intuito de conhecer e contribuir para a resolutividade das principais demandas locais na área de saúde e segurança do trabalho, bem como para divulgação das suas atribuições e principais atividades realizadas pelo Setor Saúde do Trabalhador e pela Comissão Interdisciplinar de Atenção Integral à Saúde e Segurança do Trabalho (CIAST) na Instituição.

A iniciativa tem por objetivo possibilitar espaços de capacitação, participação, articulação entre os servidores e o Setor Saúde do Trabalhador, sobre as demandas em saúde e segurança do trabalho na Universidade. As visitas foram iniciadas no dia 16 de abril, no Câmpus de Guarabira, e a equipe – composta por assistentes sociais, técnicos de Segurança do Trabalho e enfermeira do Trabalho – visitou todos os câmpus da UEPB fora de Campina Grande, nesses três meses de atividades.

Dentre as ações realizadas estão divulgação das atribuições e principais atividades realizadas pelo Setor Saúde do Trabalhador e CIAST; capacitação dos servidores e chefias para operacionalização do Procedimento de Notificação Comunicação Interna de Acidente de Trabalho; identificação das principais demandas locais em saúde e segurança do trabalho e visitas aos laboratórios dos câmpus para averiguar as demandas apresentadas ao GT Gestão dos Riscos Ambientais: os riscos químicos nos laboratórios da UEPB; realização de campanha de combate ao Assédio Moral no Setor Público; orientações sobre o uso da maleta de primeiros socorros.

Em alguns câmpus houve a parceria com os serviços de saúde municipal, com a oferta de serviços como aferição de pressão arterial, teste de glicemia, orientações nutricionais e verificação do índice de massa corpórea para os servidores. Em cada visita foram promovidas rodas de conversa entre as direções dos Centros de Ensino e pró-reitorias, com representações dos técnicos administrativos e docentes para discussão das principais demandas locais e possíveis soluções elencadas no formulário na área de saúde e segurança do trabalho encaminhadas anteriormente aos servidores, que resultou no Diagnóstico em Saúde e Segurança de Trabalho de cada Câmpus visitado.

O documento será apresentado a Administração Central da UEPB, com o intuito de dar ciência e encontrar soluções coletivas que contribuam para a melhoria da oferta de serviços em Saúde e Segurança do Trabalhador e do próprio ambiente de trabalho na UEPB.

O post Pró-Reitoria de Gestão de Pessoas encerra atividades do projeto “Saúde do Trabalhador Itinerante” no Câmpus VIII apareceu primeiro em UEPB.

[post_excerpt] =>

A Pró-Reitoria de Gestão de Pessoas (PROGEP) da Universidade Estadual da Paraíba (UEPB), através dos setores Saúde do Trabalhador e Serviço Social, encerrou, nesta terça-feira (18), no Centro de Ciências, Tecnologia e Saúde (CCTS), em Araruna, as atividades do primeiro semestre de 2019 do projeto “Saúde do Trabalhador Itinerante”. O projeto nasceu da necessidade de Leia Mais...

O post Pró-Reitoria de Gestão de Pessoas encerra atividades do projeto “Saúde do Trabalhador Itinerante” no Câmpus VIII apareceu primeiro em UEPB.

[post_date_gmt] => 2019-06-19 12:06:45 [post_date] => 2019-06-19 12:06:45 [post_modified_gmt] => 2019-06-19 12:06:45 [post_modified] => 2019-06-19 12:06:45 [post_status] => publish [comment_status] => closed [ping_status] => closed [guid] => http://www.uepb.edu.br/?p=49311 [meta] => Array ( [enclosure] => Array ( [0] => ) [syndication_source] => CCTS – UEPB [syndication_source_uri] => http://www.uepb.edu.br [syndication_source_id] => http://www.uepb.edu.br/category/centros/ccts/feed/ [rss:comments] => http://www.uepb.edu.br/pro-reitoria-de-gestao-de-pessoas-encerra-atividades-do-projeto-saude-do-trabalhador-itinerante-no-campus-viii/#respond [wfw:commentRSS] => http://www.uepb.edu.br/pro-reitoria-de-gestao-de-pessoas-encerra-atividades-do-projeto-saude-do-trabalhador-itinerante-no-campus-viii/feed/ [syndication_feed] => http://www.uepb.edu.br/category/centros/ccts/feed/ [syndication_feed_id] => 3 [syndication_permalink] => http://www.uepb.edu.br/pro-reitoria-de-gestao-de-pessoas-encerra-atividades-do-projeto-saude-do-trabalhador-itinerante-no-campus-viii/ [syndication_item_hash] => Array ( [0] => 71d32e18c7436cbfa66399e08df89328 [1] => 1f4ca8c0c7347479164fc580a416d0f1 ) ) [post_type] => post [post_author] => 25 [tax_input] => Array ( [category] => Array ( [0] => 7 [1] => 2 [2] => 42 ) [post_tag] => Array ( ) [post_format] => Array ( ) ) [post_name] => pro-reitoria-de-gestao-de-pessoas-encerra-atividades-do-projeto-saude-do-trabalhador-itinerante-no-campus-viii )

Decide filter: Returning post, everything seems orderly :Pró-Reitoria de Gestão de Pessoas encerra atividades do projeto “Saúde do Trabalhador Itinerante” no Câmpus VIII

Array ( [post_title] => Pró-Reitoria de Gestão de Pessoas encerra atividades do projeto “Saúde do Trabalhador Itinerante” no Câmpus VIII [post_content] =>

A Pró-Reitoria de Gestão de Pessoas (PROGEP) da Universidade Estadual da Paraíba (UEPB), através dos setores Saúde do Trabalhador e Serviço Social, encerrou, nesta terça-feira (18), no Centro de Ciências, Tecnologia e Saúde (CCTS), em Araruna, as atividades do primeiro semestre de 2019 do projeto “Saúde do Trabalhador Itinerante”.

O projeto nasceu da necessidade de aproximação do Setor Saúde do Trabalhador com os diversos setores e câmpus da UEPB, especificamente no intuito de conhecer e contribuir para a resolutividade das principais demandas locais na área de saúde e segurança do trabalho, bem como para divulgação das suas atribuições e principais atividades realizadas pelo Setor Saúde do Trabalhador e pela Comissão Interdisciplinar de Atenção Integral à Saúde e Segurança do Trabalho (CIAST) na Instituição.

A iniciativa tem por objetivo possibilitar espaços de capacitação, participação, articulação entre os servidores e o Setor Saúde do Trabalhador, sobre as demandas em saúde e segurança do trabalho na Universidade. As visitas foram iniciadas no dia 16 de abril, no Câmpus de Guarabira, e a equipe – composta por assistentes sociais, técnicos de Segurança do Trabalho e enfermeira do Trabalho – visitou todos os câmpus da UEPB fora de Campina Grande, nesses três meses de atividades.

Dentre as ações realizadas estão divulgação das atribuições e principais atividades realizadas pelo Setor Saúde do Trabalhador e CIAST; capacitação dos servidores e chefias para operacionalização do Procedimento de Notificação Comunicação Interna de Acidente de Trabalho; identificação das principais demandas locais em saúde e segurança do trabalho e visitas aos laboratórios dos câmpus para averiguar as demandas apresentadas ao GT Gestão dos Riscos Ambientais: os riscos químicos nos laboratórios da UEPB; realização de campanha de combate ao Assédio Moral no Setor Público; orientações sobre o uso da maleta de primeiros socorros.

Em alguns câmpus houve a parceria com os serviços de saúde municipal, com a oferta de serviços como aferição de pressão arterial, teste de glicemia, orientações nutricionais e verificação do índice de massa corpórea para os servidores. Em cada visita foram promovidas rodas de conversa entre as direções dos Centros de Ensino e pró-reitorias, com representações dos técnicos administrativos e docentes para discussão das principais demandas locais e possíveis soluções elencadas no formulário na área de saúde e segurança do trabalho encaminhadas anteriormente aos servidores, que resultou no Diagnóstico em Saúde e Segurança de Trabalho de cada Câmpus visitado.

O documento será apresentado a Administração Central da UEPB, com o intuito de dar ciência e encontrar soluções coletivas que contribuam para a melhoria da oferta de serviços em Saúde e Segurança do Trabalhador e do próprio ambiente de trabalho na UEPB.

O post Pró-Reitoria de Gestão de Pessoas encerra atividades do projeto “Saúde do Trabalhador Itinerante” no Câmpus VIII apareceu primeiro em UEPB.

[post_excerpt] =>

A Pró-Reitoria de Gestão de Pessoas (PROGEP) da Universidade Estadual da Paraíba (UEPB), através dos setores Saúde do Trabalhador e Serviço Social, encerrou, nesta terça-feira (18), no Centro de Ciências, Tecnologia e Saúde (CCTS), em Araruna, as atividades do primeiro semestre de 2019 do projeto “Saúde do Trabalhador Itinerante”. O projeto nasceu da necessidade de Leia Mais...

O post Pró-Reitoria de Gestão de Pessoas encerra atividades do projeto “Saúde do Trabalhador Itinerante” no Câmpus VIII apareceu primeiro em UEPB.

[post_date_gmt] => 2019-06-19 12:06:45 [post_date] => 2019-06-19 12:06:45 [post_modified_gmt] => 2019-06-19 12:06:45 [post_modified] => 2019-06-19 12:06:45 [post_status] => publish [comment_status] => closed [ping_status] => closed [guid] => http://www.uepb.edu.br/?p=49311 [meta] => Array ( [enclosure] => Array ( [0] => ) [syndication_source] => CCTS – UEPB [syndication_source_uri] => http://www.uepb.edu.br [syndication_source_id] => http://www.uepb.edu.br/category/centros/ccts/feed/ [rss:comments] => http://www.uepb.edu.br/pro-reitoria-de-gestao-de-pessoas-encerra-atividades-do-projeto-saude-do-trabalhador-itinerante-no-campus-viii/#respond [wfw:commentRSS] => http://www.uepb.edu.br/pro-reitoria-de-gestao-de-pessoas-encerra-atividades-do-projeto-saude-do-trabalhador-itinerante-no-campus-viii/feed/ [syndication_feed] => http://www.uepb.edu.br/category/centros/ccts/feed/ [syndication_feed_id] => 3 [syndication_permalink] => http://www.uepb.edu.br/pro-reitoria-de-gestao-de-pessoas-encerra-atividades-do-projeto-saude-do-trabalhador-itinerante-no-campus-viii/ [syndication_item_hash] => Array ( [0] => 71d32e18c7436cbfa66399e08df89328 [1] => 1f4ca8c0c7347479164fc580a416d0f1 ) ) [post_type] => post [post_author] => 25 [tax_input] => Array ( [category] => Array ( [0] => 7 [1] => 2 [2] => 42 ) [post_tag] => Array ( ) [post_format] => Array ( ) ) [post_name] => pro-reitoria-de-gestao-de-pessoas-encerra-atividades-do-projeto-saude-do-trabalhador-itinerante-no-campus-viii )